<?xml version="1.0" encoding="UTF-8" standalone="no" ?>
<gpx xmlns="http://www.topografix.com/GPX/1/1" xmlns:xsi="http://www.w3.org/2001/XMLSchema-instance" xsi:schemaLocation="http://www.topografix.com/GPX/1/1 http://www.topografix.com/GPX/1/1/gpx.xsd" version="1.1" creator="VisuGPX - https://www.visugpx.com">
  <metadata>
    <name>2023-09-14-46-St Martin Labouval</name>
    <desc><![CDATA[Randonnée de 11,7km pour environ 350m de dénivelé positif. Un Départ en bordure de Lot pour se diriger ensuite sur le plateau, passage par quelques hameaux et devant un gouffre prés de pech de Poudrés, avant de redescendre par de beaux chemins vers st Martin]]></desc>
  </metadata>
  <trk>
    <name><![CDATA[2023-09-14 13:12:48]]></name>
    <trkseg>
      <trkpt lat="44.46468" lon="1.73406">
        <ele>149.14</ele>
        <time>2023-09-14T06:55:27Z</time>
      </trkpt>
      <trkpt lat="44.4646" lon="1.73392">
        <ele>139.53</ele>
        <time>2023-09-14T06:57:44Z</time>
      </trkpt>
      <trkpt lat="44.46468" lon="1.73371">
        <ele>139.53</ele>
        <time>2023-09-14T06:58:05Z</time>
      </trkpt>
      <trkpt lat="44.46474" lon="1.73353">
        <ele>139.53</ele>
        <time>2023-09-14T06:58:16Z</time>
      </trkpt>
      <trkpt lat="44.46471" lon="1.7334">
        <ele>139.05</ele>
        <time>2023-09-14T06:58:26Z</time>
      </trkpt>
      <trkpt lat="44.46467" lon="1.73324">
        <ele>139.05</ele>
        <time>2023-09-14T06:58:38Z</time>
      </trkpt>
      <trkpt lat="44.46462" lon="1.7331">
        <ele>139.05</ele>
        <time>2023-09-14T06:58:49Z</time>
      </trkpt>
      <trkpt lat="44.46456" lon="1.73298">
        <ele>139.05</ele>
        <time>2023-09-14T06:58:59Z</time>
      </trkpt>
      <trkpt lat="44.46449" lon="1.73286">
        <ele>138.57</ele>
        <time>2023-09-14T06:59:13Z</time>
      </trkpt>
      <trkpt lat="44.46445" lon="1.73268">
        <ele>138.57</ele>
        <time>2023-09-14T06:59:28Z</time>
      </trkpt>
      <trkpt lat="44.46438" lon="1.73256">
        <ele>138.09</ele>
        <time>2023-09-14T06:59:39Z</time>
      </trkpt>
      <trkpt lat="44.46427" lon="1.73245">
        <ele>138.09</ele>
        <time>2023-09-14T06:59:49Z</time>
      </trkpt>
      <trkpt lat="44.46415" lon="1.7324">
        <ele>137.61</ele>
        <time>2023-09-14T06:59:59Z</time>
      </trkpt>
      <trkpt lat="44.46405" lon="1.73238">
        <ele>137.13</ele>
        <time>2023-09-14T07:00:08Z</time>
      </trkpt>
      <trkpt lat="44.46403" lon="1.73226">
        <ele>136.16</ele>
        <time>2023-09-14T07:00:19Z</time>
      </trkpt>
      <trkpt lat="44.46416" lon="1.73215">
        <ele>135.68</ele>
        <time>2023-09-14T07:00:36Z</time>
      </trkpt>
      <trkpt lat="44.46425" lon="1.7321">
        <ele>135.2</ele>
        <time>2023-09-14T07:00:46Z</time>
      </trkpt>
      <trkpt lat="44.46433" lon="1.73199">
        <ele>135.2</ele>
        <time>2023-09-14T07:01:09Z</time>
      </trkpt>
      <trkpt lat="44.46444" lon="1.73186">
        <ele>135.2</ele>
        <time>2023-09-14T07:01:21Z</time>
      </trkpt>
      <trkpt lat="44.46454" lon="1.73178">
        <ele>135.2</ele>
        <time>2023-09-14T07:01:31Z</time>
      </trkpt>
      <trkpt lat="44.46466" lon="1.73173">
        <ele>135.2</ele>
        <time>2023-09-14T07:01:40Z</time>
      </trkpt>
      <trkpt lat="44.46483" lon="1.73152">
        <ele>134.72</ele>
        <time>2023-09-14T07:02:13Z</time>
      </trkpt>
      <trkpt lat="44.46494" lon="1.73141">
        <ele>134.72</ele>
        <time>2023-09-14T07:02:25Z</time>
      </trkpt>
      <trkpt lat="44.46505" lon="1.73129">
        <ele>134.24</ele>
        <time>2023-09-14T07:02:40Z</time>
      </trkpt>
      <trkpt lat="44.46517" lon="1.73117">
        <ele>134.24</ele>
        <time>2023-09-14T07:02:51Z</time>
      </trkpt>
      <trkpt lat="44.46527" lon="1.73106">
        <ele>134.24</ele>
        <time>2023-09-14T07:03:01Z</time>
      </trkpt>
      <trkpt lat="44.46537" lon="1.73097">
        <ele>134.24</ele>
        <time>2023-09-14T07:03:11Z</time>
      </trkpt>
      <trkpt lat="44.46546" lon="1.73088">
        <ele>135.2</ele>
        <time>2023-09-14T07:03:19Z</time>
      </trkpt>
      <trkpt lat="44.46555" lon="1.73078">
        <ele>135.2</ele>
        <time>2023-09-14T07:03:27Z</time>
      </trkpt>
      <trkpt lat="44.46563" lon="1.73068">
        <ele>135.2</ele>
        <time>2023-09-14T07:03:35Z</time>
      </trkpt>
      <trkpt lat="44.46571" lon="1.73059">
        <ele>135.2</ele>
        <time>2023-09-14T07:03:44Z</time>
      </trkpt>
      <trkpt lat="44.4658" lon="1.73049">
        <ele>135.2</ele>
        <time>2023-09-14T07:03:54Z</time>
      </trkpt>
      <trkpt lat="44.46589" lon="1.73039">
        <ele>135.2</ele>
        <time>2023-09-14T07:04:03Z</time>
      </trkpt>
      <trkpt lat="44.46597" lon="1.73029">
        <ele>135.2</ele>
        <time>2023-09-14T07:04:13Z</time>
      </trkpt>
      <trkpt lat="44.46605" lon="1.73017">
        <ele>135.2</ele>
        <time>2023-09-14T07:04:23Z</time>
      </trkpt>
      <trkpt lat="44.46614" lon="1.73007">
        <ele>135.2</ele>
        <time>2023-09-14T07:04:32Z</time>
      </trkpt>
      <trkpt lat="44.46623" lon="1.72998">
        <ele>135.2</ele>
        <time>2023-09-14T07:04:41Z</time>
      </trkpt>
      <trkpt lat="44.4663" lon="1.72987">
        <ele>135.2</ele>
        <time>2023-09-14T07:04:50Z</time>
      </trkpt>
      <trkpt lat="44.46638" lon="1.72975">
        <ele>135.2</ele>
        <time>2023-09-14T07:04:59Z</time>
      </trkpt>
      <trkpt lat="44.46644" lon="1.72963">
        <ele>135.2</ele>
        <time>2023-09-14T07:05:08Z</time>
      </trkpt>
      <trkpt lat="44.46652" lon="1.72957">
        <ele>135.2</ele>
        <time>2023-09-14T07:05:20Z</time>
      </trkpt>
      <trkpt lat="44.46662" lon="1.72956">
        <ele>135.2</ele>
        <time>2023-09-14T07:05:29Z</time>
      </trkpt>
      <trkpt lat="44.46671" lon="1.72961">
        <ele>135.2</ele>
        <time>2023-09-14T07:05:46Z</time>
      </trkpt>
      <trkpt lat="44.46682" lon="1.72967">
        <ele>135.2</ele>
        <time>2023-09-14T07:05:59Z</time>
      </trkpt>
      <trkpt lat="44.4669" lon="1.72972">
        <ele>135.2</ele>
        <time>2023-09-14T07:06:06Z</time>
      </trkpt>
      <trkpt lat="44.46699" lon="1.72979">
        <ele>135.2</ele>
        <time>2023-09-14T07:06:14Z</time>
      </trkpt>
      <trkpt lat="44.46708" lon="1.72985">
        <ele>135.2</ele>
        <time>2023-09-14T07:06:23Z</time>
      </trkpt>
      <trkpt lat="44.46718" lon="1.7299">
        <ele>135.2</ele>
        <time>2023-09-14T07:06:32Z</time>
      </trkpt>
      <trkpt lat="44.46728" lon="1.72997">
        <ele>136.16</ele>
        <time>2023-09-14T07:06:42Z</time>
      </trkpt>
      <trkpt lat="44.46738" lon="1.72996">
        <ele>137.13</ele>
        <time>2023-09-14T07:07:42Z</time>
      </trkpt>
      <trkpt lat="44.46742" lon="1.72984">
        <ele>137.13</ele>
        <time>2023-09-14T07:07:50Z</time>
      </trkpt>
      <trkpt lat="44.46747" lon="1.7297">
        <ele>137.13</ele>
        <time>2023-09-14T07:07:58Z</time>
      </trkpt>
      <trkpt lat="44.46752" lon="1.72957">
        <ele>137.13</ele>
        <time>2023-09-14T07:08:06Z</time>
      </trkpt>
      <trkpt lat="44.46756" lon="1.72942">
        <ele>137.13</ele>
        <time>2023-09-14T07:08:14Z</time>
      </trkpt>
      <trkpt lat="44.46761" lon="1.72929">
        <ele>137.13</ele>
        <time>2023-09-14T07:08:21Z</time>
      </trkpt>
      <trkpt lat="44.4677" lon="1.72922">
        <ele>137.13</ele>
        <time>2023-09-14T07:08:34Z</time>
      </trkpt>
      <trkpt lat="44.46781" lon="1.72925">
        <ele>137.61</ele>
        <time>2023-09-14T07:08:50Z</time>
      </trkpt>
      <trkpt lat="44.46799" lon="1.72917">
        <ele>138.09</ele>
        <time>2023-09-14T07:09:11Z</time>
      </trkpt>
      <trkpt lat="44.46801" lon="1.72902">
        <ele>138.09</ele>
        <time>2023-09-14T07:09:22Z</time>
      </trkpt>
      <trkpt lat="44.46803" lon="1.72887">
        <ele>138.09</ele>
        <time>2023-09-14T07:09:34Z</time>
      </trkpt>
      <trkpt lat="44.46805" lon="1.72872">
        <ele>139.05</ele>
        <time>2023-09-14T07:09:44Z</time>
      </trkpt>
      <trkpt lat="44.46808" lon="1.72856">
        <ele>139.53</ele>
        <time>2023-09-14T07:09:56Z</time>
      </trkpt>
      <trkpt lat="44.46812" lon="1.7284">
        <ele>139.53</ele>
        <time>2023-09-14T07:10:06Z</time>
      </trkpt>
      <trkpt lat="44.46817" lon="1.72822">
        <ele>140.01</ele>
        <time>2023-09-14T07:10:19Z</time>
      </trkpt>
      <trkpt lat="44.46823" lon="1.72807">
        <ele>140.49</ele>
        <time>2023-09-14T07:10:34Z</time>
      </trkpt>
      <trkpt lat="44.46829" lon="1.72794">
        <ele>140.97</ele>
        <time>2023-09-14T07:10:46Z</time>
      </trkpt>
      <trkpt lat="44.46834" lon="1.7278">
        <ele>141.93</ele>
        <time>2023-09-14T07:10:59Z</time>
      </trkpt>
      <trkpt lat="44.46839" lon="1.72763">
        <ele>142.89</ele>
        <time>2023-09-14T07:11:12Z</time>
      </trkpt>
      <trkpt lat="44.46843" lon="1.72746">
        <ele>143.85</ele>
        <time>2023-09-14T07:11:23Z</time>
      </trkpt>
      <trkpt lat="44.46848" lon="1.72733">
        <ele>144.82</ele>
        <time>2023-09-14T07:11:33Z</time>
      </trkpt>
      <trkpt lat="44.46853" lon="1.72719">
        <ele>145.78</ele>
        <time>2023-09-14T07:11:43Z</time>
      </trkpt>
      <trkpt lat="44.46857" lon="1.72704">
        <ele>146.74</ele>
        <time>2023-09-14T07:11:56Z</time>
      </trkpt>
      <trkpt lat="44.46863" lon="1.72689">
        <ele>147.7</ele>
        <time>2023-09-14T07:12:08Z</time>
      </trkpt>
      <trkpt lat="44.4687" lon="1.72676">
        <ele>148.66</ele>
        <time>2023-09-14T07:12:21Z</time>
      </trkpt>
      <trkpt lat="44.46879" lon="1.72659">
        <ele>150.58</ele>
        <time>2023-09-14T07:12:39Z</time>
      </trkpt>
      <trkpt lat="44.46889" lon="1.72646">
        <ele>152.51</ele>
        <time>2023-09-14T07:12:55Z</time>
      </trkpt>
      <trkpt lat="44.46898" lon="1.72633">
        <ele>153.47</ele>
        <time>2023-09-14T07:13:08Z</time>
      </trkpt>
      <trkpt lat="44.46912" lon="1.72634">
        <ele>154.91</ele>
        <time>2023-09-14T07:13:37Z</time>
      </trkpt>
      <trkpt lat="44.4691" lon="1.7265">
        <ele>156.35</ele>
        <time>2023-09-14T07:13:49Z</time>
      </trkpt>
      <trkpt lat="44.46911" lon="1.72664">
        <ele>158.27</ele>
        <time>2023-09-14T07:14:01Z</time>
      </trkpt>
      <trkpt lat="44.46916" lon="1.72678">
        <ele>160.68</ele>
        <time>2023-09-14T07:14:14Z</time>
      </trkpt>
      <trkpt lat="44.46924" lon="1.72696">
        <ele>163.08</ele>
        <time>2023-09-14T07:14:32Z</time>
      </trkpt>
      <trkpt lat="44.4693" lon="1.72712">
        <ele>164.52</ele>
        <time>2023-09-14T07:14:45Z</time>
      </trkpt>
      <trkpt lat="44.46936" lon="1.72727">
        <ele>166.93</ele>
        <time>2023-09-14T07:15:00Z</time>
      </trkpt>
      <trkpt lat="44.46939" lon="1.72741">
        <ele>168.37</ele>
        <time>2023-09-14T07:15:12Z</time>
      </trkpt>
      <trkpt lat="44.46939" lon="1.72756">
        <ele>169.81</ele>
        <time>2023-09-14T07:15:23Z</time>
      </trkpt>
      <trkpt lat="44.46941" lon="1.72772">
        <ele>171.73</ele>
        <time>2023-09-14T07:15:35Z</time>
      </trkpt>
      <trkpt lat="44.46942" lon="1.72787">
        <ele>173.17</ele>
        <time>2023-09-14T07:15:46Z</time>
      </trkpt>
      <trkpt lat="44.46944" lon="1.72803">
        <ele>174.14</ele>
        <time>2023-09-14T07:15:57Z</time>
      </trkpt>
      <trkpt lat="44.46948" lon="1.72819">
        <ele>174.14</ele>
        <time>2023-09-14T07:16:41Z</time>
      </trkpt>
      <trkpt lat="44.46949" lon="1.72837">
        <ele>175.58</ele>
        <time>2023-09-14T07:16:58Z</time>
      </trkpt>
      <trkpt lat="44.46926" lon="1.72913">
        <ele>174.14</ele>
        <time>2023-09-14T07:22:12Z</time>
      </trkpt>
      <trkpt lat="44.46928" lon="1.72897">
        <ele>172.69</ele>
        <time>2023-09-14T07:22:57Z</time>
      </trkpt>
      <trkpt lat="44.46925" lon="1.72895">
        <ele>170.29</ele>
        <time>2023-09-14T07:23:12Z</time>
      </trkpt>
      <trkpt lat="44.46928" lon="1.72882">
        <ele>169.81</ele>
        <time>2023-09-14T07:23:25Z</time>
      </trkpt>
      <trkpt lat="44.46928" lon="1.72866">
        <ele>169.81</ele>
        <time>2023-09-14T07:23:37Z</time>
      </trkpt>
      <trkpt lat="44.4693" lon="1.72848">
        <ele>169.81</ele>
        <time>2023-09-14T07:23:49Z</time>
      </trkpt>
      <trkpt lat="44.46935" lon="1.72833">
        <ele>170.77</ele>
        <time>2023-09-14T07:24:04Z</time>
      </trkpt>
      <trkpt lat="44.46937" lon="1.72818">
        <ele>173.17</ele>
        <time>2023-09-14T07:24:17Z</time>
      </trkpt>
      <trkpt lat="44.4694" lon="1.72799">
        <ele>173.66</ele>
        <time>2023-09-14T07:24:49Z</time>
      </trkpt>
      <trkpt lat="44.46937" lon="1.72784">
        <ele>171.73</ele>
        <time>2023-09-14T07:25:01Z</time>
      </trkpt>
      <trkpt lat="44.46933" lon="1.72765">
        <ele>169.81</ele>
        <time>2023-09-14T07:25:18Z</time>
      </trkpt>
      <trkpt lat="44.46931" lon="1.7275">
        <ele>167.89</ele>
        <time>2023-09-14T07:25:29Z</time>
      </trkpt>
      <trkpt lat="44.46929" lon="1.72734">
        <ele>165.48</ele>
        <time>2023-09-14T07:25:41Z</time>
      </trkpt>
      <trkpt lat="44.46925" lon="1.72718">
        <ele>163.56</ele>
        <time>2023-09-14T07:25:54Z</time>
      </trkpt>
      <trkpt lat="44.46919" lon="1.72702">
        <ele>161.16</ele>
        <time>2023-09-14T07:26:08Z</time>
      </trkpt>
      <trkpt lat="44.46912" lon="1.72686">
        <ele>159.24</ele>
        <time>2023-09-14T07:26:21Z</time>
      </trkpt>
      <trkpt lat="44.46906" lon="1.72667">
        <ele>157.31</ele>
        <time>2023-09-14T07:26:33Z</time>
      </trkpt>
      <trkpt lat="44.46907" lon="1.72651">
        <ele>154.91</ele>
        <time>2023-09-14T07:26:44Z</time>
      </trkpt>
      <trkpt lat="44.46907" lon="1.72633">
        <ele>152.99</ele>
        <time>2023-09-14T07:26:56Z</time>
      </trkpt>
      <trkpt lat="44.46905" lon="1.72617">
        <ele>152.51</ele>
        <time>2023-09-14T07:27:20Z</time>
      </trkpt>
      <trkpt lat="44.46901" lon="1.72601">
        <ele>151.54</ele>
        <time>2023-09-14T07:27:38Z</time>
      </trkpt>
      <trkpt lat="44.46907" lon="1.72588">
        <ele>150.58</ele>
        <time>2023-09-14T07:27:50Z</time>
      </trkpt>
      <trkpt lat="44.46914" lon="1.72573">
        <ele>151.54</ele>
        <time>2023-09-14T07:28:05Z</time>
      </trkpt>
      <trkpt lat="44.46925" lon="1.72562">
        <ele>152.99</ele>
        <time>2023-09-14T07:28:18Z</time>
      </trkpt>
      <trkpt lat="44.46933" lon="1.72551">
        <ele>153.95</ele>
        <time>2023-09-14T07:28:31Z</time>
      </trkpt>
      <trkpt lat="44.46937" lon="1.72535">
        <ele>154.43</ele>
        <time>2023-09-14T07:28:45Z</time>
      </trkpt>
      <trkpt lat="44.4694" lon="1.72519">
        <ele>155.87</ele>
        <time>2023-09-14T07:28:58Z</time>
      </trkpt>
      <trkpt lat="44.46947" lon="1.72506">
        <ele>157.79</ele>
        <time>2023-09-14T07:29:19Z</time>
      </trkpt>
      <trkpt lat="44.46955" lon="1.72493">
        <ele>159.72</ele>
        <time>2023-09-14T07:29:36Z</time>
      </trkpt>
      <trkpt lat="44.46962" lon="1.72484">
        <ele>161.16</ele>
        <time>2023-09-14T07:29:51Z</time>
      </trkpt>
      <trkpt lat="44.46968" lon="1.72472">
        <ele>163.08</ele>
        <time>2023-09-14T07:30:05Z</time>
      </trkpt>
      <trkpt lat="44.46975" lon="1.72459">
        <ele>164.52</ele>
        <time>2023-09-14T07:30:20Z</time>
      </trkpt>
      <trkpt lat="44.46983" lon="1.72446">
        <ele>165.48</ele>
        <time>2023-09-14T07:30:34Z</time>
      </trkpt>
      <trkpt lat="44.4699" lon="1.72434">
        <ele>166.45</ele>
        <time>2023-09-14T07:30:48Z</time>
      </trkpt>
      <trkpt lat="44.46998" lon="1.72419">
        <ele>166.93</ele>
        <time>2023-09-14T07:32:11Z</time>
      </trkpt>
      <trkpt lat="44.47004" lon="1.72404">
        <ele>167.89</ele>
        <time>2023-09-14T07:32:22Z</time>
      </trkpt>
      <trkpt lat="44.47013" lon="1.72392">
        <ele>170.77</ele>
        <time>2023-09-14T07:32:35Z</time>
      </trkpt>
      <trkpt lat="44.47021" lon="1.72376">
        <ele>172.69</ele>
        <time>2023-09-14T07:32:48Z</time>
      </trkpt>
      <trkpt lat="44.47027" lon="1.72364">
        <ele>174.14</ele>
        <time>2023-09-14T07:33:00Z</time>
      </trkpt>
      <trkpt lat="44.47032" lon="1.72348">
        <ele>175.1</ele>
        <time>2023-09-14T07:33:11Z</time>
      </trkpt>
      <trkpt lat="44.47038" lon="1.72331">
        <ele>175.58</ele>
        <time>2023-09-14T07:33:22Z</time>
      </trkpt>
      <trkpt lat="44.47045" lon="1.72318">
        <ele>176.06</ele>
        <time>2023-09-14T07:33:34Z</time>
      </trkpt>
      <trkpt lat="44.47055" lon="1.72303">
        <ele>179.42</ele>
        <time>2023-09-14T07:33:51Z</time>
      </trkpt>
      <trkpt lat="44.47067" lon="1.72289">
        <ele>182.79</ele>
        <time>2023-09-14T07:34:13Z</time>
      </trkpt>
      <trkpt lat="44.47072" lon="1.72275">
        <ele>185.19</ele>
        <time>2023-09-14T07:34:32Z</time>
      </trkpt>
      <trkpt lat="44.47073" lon="1.72262">
        <ele>188.08</ele>
        <time>2023-09-14T07:34:53Z</time>
      </trkpt>
      <trkpt lat="44.47076" lon="1.72241">
        <ele>192.4</ele>
        <time>2023-09-14T07:35:24Z</time>
      </trkpt>
      <trkpt lat="44.47077" lon="1.72225">
        <ele>195.77</ele>
        <time>2023-09-14T07:35:42Z</time>
      </trkpt>
      <trkpt lat="44.47086" lon="1.72217">
        <ele>199.13</ele>
        <time>2023-09-14T07:36:10Z</time>
      </trkpt>
      <trkpt lat="44.47124" lon="1.72214">
        <ele>205.38</ele>
        <time>2023-09-14T07:38:51Z</time>
      </trkpt>
      <trkpt lat="44.47144" lon="1.72213">
        <ele>206.82</ele>
        <time>2023-09-14T07:39:14Z</time>
      </trkpt>
      <trkpt lat="44.47162" lon="1.72219">
        <ele>207.78</ele>
        <time>2023-09-14T07:39:36Z</time>
      </trkpt>
      <trkpt lat="44.47176" lon="1.72217">
        <ele>208.26</ele>
        <time>2023-09-14T07:39:52Z</time>
      </trkpt>
      <trkpt lat="44.4719" lon="1.72214">
        <ele>209.7</ele>
        <time>2023-09-14T07:40:09Z</time>
      </trkpt>
      <trkpt lat="44.47211" lon="1.72207">
        <ele>210.67</ele>
        <time>2023-09-14T07:40:31Z</time>
      </trkpt>
      <trkpt lat="44.4722" lon="1.72189">
        <ele>214.03</ele>
        <time>2023-09-14T07:40:58Z</time>
      </trkpt>
      <trkpt lat="44.47227" lon="1.72182">
        <ele>215.95</ele>
        <time>2023-09-14T07:41:09Z</time>
      </trkpt>
      <trkpt lat="44.47235" lon="1.72176">
        <ele>216.91</ele>
        <time>2023-09-14T07:41:20Z</time>
      </trkpt>
      <trkpt lat="44.47245" lon="1.7217">
        <ele>218.36</ele>
        <time>2023-09-14T07:41:32Z</time>
      </trkpt>
      <trkpt lat="44.47271" lon="1.72159">
        <ele>223.64</ele>
        <time>2023-09-14T07:42:19Z</time>
      </trkpt>
      <trkpt lat="44.47315" lon="1.72148">
        <ele>239.51</ele>
        <time>2023-09-14T07:44:31Z</time>
      </trkpt>
      <trkpt lat="44.47308" lon="1.7213">
        <ele>241.91</ele>
        <time>2023-09-14T07:44:53Z</time>
      </trkpt>
      <trkpt lat="44.47301" lon="1.72101">
        <ele>245.27</ele>
        <time>2023-09-14T07:45:24Z</time>
      </trkpt>
      <trkpt lat="44.47297" lon="1.72087">
        <ele>246.72</ele>
        <time>2023-09-14T07:45:41Z</time>
      </trkpt>
      <trkpt lat="44.47291" lon="1.72072">
        <ele>248.16</ele>
        <time>2023-09-14T07:45:56Z</time>
      </trkpt>
      <trkpt lat="44.47286" lon="1.72059">
        <ele>249.12</ele>
        <time>2023-09-14T07:46:11Z</time>
      </trkpt>
      <trkpt lat="44.47278" lon="1.72048">
        <ele>251.52</ele>
        <time>2023-09-14T07:46:29Z</time>
      </trkpt>
      <trkpt lat="44.47269" lon="1.72035">
        <ele>254.41</ele>
        <time>2023-09-14T07:47:29Z</time>
      </trkpt>
      <trkpt lat="44.47263" lon="1.72023">
        <ele>256.81</ele>
        <time>2023-09-14T07:47:59Z</time>
      </trkpt>
      <trkpt lat="44.47254" lon="1.72016">
        <ele>259.21</ele>
        <time>2023-09-14T07:48:15Z</time>
      </trkpt>
      <trkpt lat="44.47245" lon="1.72009">
        <ele>262.1</ele>
        <time>2023-09-14T07:48:32Z</time>
      </trkpt>
      <trkpt lat="44.47239" lon="1.71997">
        <ele>264.98</ele>
        <time>2023-09-14T07:49:16Z</time>
      </trkpt>
      <trkpt lat="44.4726" lon="1.71995">
        <ele>275.56</ele>
        <time>2023-09-14T07:50:38Z</time>
      </trkpt>
      <trkpt lat="44.47263" lon="1.71983">
        <ele>279.88</ele>
        <time>2023-09-14T07:51:06Z</time>
      </trkpt>
      <trkpt lat="44.47271" lon="1.71985">
        <ele>281.8</ele>
        <time>2023-09-14T07:51:29Z</time>
      </trkpt>
      <trkpt lat="44.47277" lon="1.7199">
        <ele>281.8</ele>
        <time>2023-09-14T07:51:44Z</time>
      </trkpt>
      <trkpt lat="44.47282" lon="1.71993">
        <ele>281.8</ele>
        <time>2023-09-14T07:53:31Z</time>
      </trkpt>
      <trkpt lat="44.47277" lon="1.71988">
        <ele>282.77</ele>
        <time>2023-09-14T07:57:07Z</time>
      </trkpt>
      <trkpt lat="44.47284" lon="1.7198">
        <ele>283.73</ele>
        <time>2023-09-14T07:57:21Z</time>
      </trkpt>
      <trkpt lat="44.47297" lon="1.71979">
        <ele>284.21</ele>
        <time>2023-09-14T07:58:19Z</time>
      </trkpt>
      <trkpt lat="44.47298" lon="1.71989">
        <ele>283.73</ele>
        <time>2023-09-14T07:58:40Z</time>
      </trkpt>
      <trkpt lat="44.47305" lon="1.71991">
        <ele>283.25</ele>
        <time>2023-09-14T07:59:26Z</time>
      </trkpt>
      <trkpt lat="44.47295" lon="1.71987">
        <ele>283.25</ele>
        <time>2023-09-14T07:59:36Z</time>
      </trkpt>
      <trkpt lat="44.47283" lon="1.71985">
        <ele>283.25</ele>
        <time>2023-09-14T07:59:48Z</time>
      </trkpt>
      <trkpt lat="44.47272" lon="1.71987">
        <ele>282.28</ele>
        <time>2023-09-14T08:00:06Z</time>
      </trkpt>
      <trkpt lat="44.47263" lon="1.71982">
        <ele>282.28</ele>
        <time>2023-09-14T08:00:20Z</time>
      </trkpt>
      <trkpt lat="44.47251" lon="1.71986">
        <ele>279.4</ele>
        <time>2023-09-14T08:01:06Z</time>
      </trkpt>
      <trkpt lat="44.47242" lon="1.71976">
        <ele>279.4</ele>
        <time>2023-09-14T08:01:16Z</time>
      </trkpt>
      <trkpt lat="44.47232" lon="1.71969">
        <ele>280.84</ele>
        <time>2023-09-14T08:01:27Z</time>
      </trkpt>
      <trkpt lat="44.47225" lon="1.71959">
        <ele>282.28</ele>
        <time>2023-09-14T08:01:38Z</time>
      </trkpt>
      <trkpt lat="44.47215" lon="1.71952">
        <ele>283.25</ele>
        <time>2023-09-14T08:01:50Z</time>
      </trkpt>
      <trkpt lat="44.47204" lon="1.71948">
        <ele>283.25</ele>
        <time>2023-09-14T08:02:03Z</time>
      </trkpt>
      <trkpt lat="44.47195" lon="1.71944">
        <ele>283.25</ele>
        <time>2023-09-14T08:02:14Z</time>
      </trkpt>
      <trkpt lat="44.47187" lon="1.71934">
        <ele>283.73</ele>
        <time>2023-09-14T08:02:27Z</time>
      </trkpt>
      <trkpt lat="44.47178" lon="1.71927">
        <ele>285.17</ele>
        <time>2023-09-14T08:02:40Z</time>
      </trkpt>
      <trkpt lat="44.47172" lon="1.71914">
        <ele>285.17</ele>
        <time>2023-09-14T08:02:53Z</time>
      </trkpt>
      <trkpt lat="44.47165" lon="1.71904">
        <ele>285.17</ele>
        <time>2023-09-14T08:03:04Z</time>
      </trkpt>
      <trkpt lat="44.47155" lon="1.71897">
        <ele>288.53</ele>
        <time>2023-09-14T08:03:28Z</time>
      </trkpt>
      <trkpt lat="44.47148" lon="1.71886">
        <ele>291.9</ele>
        <time>2023-09-14T08:03:43Z</time>
      </trkpt>
      <trkpt lat="44.47147" lon="1.71859">
        <ele>296.22</ele>
        <time>2023-09-14T08:04:40Z</time>
      </trkpt>
      <trkpt lat="44.47144" lon="1.71844">
        <ele>297.67</ele>
        <time>2023-09-14T08:04:54Z</time>
      </trkpt>
      <trkpt lat="44.47141" lon="1.7183">
        <ele>297.67</ele>
        <time>2023-09-14T08:05:31Z</time>
      </trkpt>
      <trkpt lat="44.47143" lon="1.71814">
        <ele>297.67</ele>
        <time>2023-09-14T08:05:45Z</time>
      </trkpt>
      <trkpt lat="44.47141" lon="1.71798">
        <ele>299.11</ele>
        <time>2023-09-14T08:06:03Z</time>
      </trkpt>
      <trkpt lat="44.47138" lon="1.71782">
        <ele>301.03</ele>
        <time>2023-09-14T08:06:17Z</time>
      </trkpt>
      <trkpt lat="44.47134" lon="1.71768">
        <ele>301.03</ele>
        <time>2023-09-14T08:06:29Z</time>
      </trkpt>
      <trkpt lat="44.47129" lon="1.71757">
        <ele>301.03</ele>
        <time>2023-09-14T08:06:39Z</time>
      </trkpt>
      <trkpt lat="44.47122" lon="1.71746">
        <ele>301.03</ele>
        <time>2023-09-14T08:06:51Z</time>
      </trkpt>
      <trkpt lat="44.47119" lon="1.71734">
        <ele>301.03</ele>
        <time>2023-09-14T08:07:02Z</time>
      </trkpt>
      <trkpt lat="44.47113" lon="1.71722">
        <ele>299.11</ele>
        <time>2023-09-14T08:07:13Z</time>
      </trkpt>
      <trkpt lat="44.47104" lon="1.71714">
        <ele>299.11</ele>
        <time>2023-09-14T08:07:27Z</time>
      </trkpt>
      <trkpt lat="44.47095" lon="1.71708">
        <ele>298.15</ele>
        <time>2023-09-14T08:07:39Z</time>
      </trkpt>
      <trkpt lat="44.47086" lon="1.717">
        <ele>297.67</ele>
        <time>2023-09-14T08:07:52Z</time>
      </trkpt>
      <trkpt lat="44.47076" lon="1.71695">
        <ele>296.7</ele>
        <time>2023-09-14T08:08:18Z</time>
      </trkpt>
      <trkpt lat="44.47067" lon="1.71692">
        <ele>296.22</ele>
        <time>2023-09-14T08:08:40Z</time>
      </trkpt>
      <trkpt lat="44.47058" lon="1.71688">
        <ele>294.78</ele>
        <time>2023-09-14T08:09:30Z</time>
      </trkpt>
      <trkpt lat="44.47052" lon="1.71681">
        <ele>294.78</ele>
        <time>2023-09-14T08:09:49Z</time>
      </trkpt>
      <trkpt lat="44.4705" lon="1.71667">
        <ele>294.78</ele>
        <time>2023-09-14T08:10:01Z</time>
      </trkpt>
      <trkpt lat="44.47046" lon="1.71653">
        <ele>293.82</ele>
        <time>2023-09-14T08:10:14Z</time>
      </trkpt>
      <trkpt lat="44.47038" lon="1.71642">
        <ele>292.86</ele>
        <time>2023-09-14T08:10:28Z</time>
      </trkpt>
      <trkpt lat="44.47029" lon="1.71633">
        <ele>291.9</ele>
        <time>2023-09-14T08:10:41Z</time>
      </trkpt>
      <trkpt lat="44.4702" lon="1.71629">
        <ele>290.94</ele>
        <time>2023-09-14T08:10:54Z</time>
      </trkpt>
      <trkpt lat="44.47017" lon="1.71616">
        <ele>290.46</ele>
        <time>2023-09-14T08:11:14Z</time>
      </trkpt>
      <trkpt lat="44.47013" lon="1.71603">
        <ele>289.97</ele>
        <time>2023-09-14T08:11:25Z</time>
      </trkpt>
      <trkpt lat="44.47006" lon="1.71589">
        <ele>289.49</ele>
        <time>2023-09-14T08:11:45Z</time>
      </trkpt>
      <trkpt lat="44.46995" lon="1.71583">
        <ele>289.49</ele>
        <time>2023-09-14T08:12:05Z</time>
      </trkpt>
      <trkpt lat="44.4699" lon="1.71571">
        <ele>289.49</ele>
        <time>2023-09-14T08:12:41Z</time>
      </trkpt>
      <trkpt lat="44.46983" lon="1.71568">
        <ele>291.42</ele>
        <time>2023-09-14T08:12:55Z</time>
      </trkpt>
      <trkpt lat="44.46977" lon="1.71566">
        <ele>290.46</ele>
        <time>2023-09-14T08:13:17Z</time>
      </trkpt>
      <trkpt lat="44.46984" lon="1.7156">
        <ele>291.42</ele>
        <time>2023-09-14T08:13:32Z</time>
      </trkpt>
      <trkpt lat="44.46992" lon="1.71555">
        <ele>291.42</ele>
        <time>2023-09-14T08:13:58Z</time>
      </trkpt>
      <trkpt lat="44.47001" lon="1.71545">
        <ele>292.38</ele>
        <time>2023-09-14T08:14:18Z</time>
      </trkpt>
      <trkpt lat="44.47011" lon="1.71539">
        <ele>293.34</ele>
        <time>2023-09-14T08:14:31Z</time>
      </trkpt>
      <trkpt lat="44.47021" lon="1.71533">
        <ele>293.82</ele>
        <time>2023-09-14T08:14:42Z</time>
      </trkpt>
      <trkpt lat="44.47031" lon="1.71527">
        <ele>294.3</ele>
        <time>2023-09-14T08:14:55Z</time>
      </trkpt>
      <trkpt lat="44.47041" lon="1.71522">
        <ele>294.78</ele>
        <time>2023-09-14T08:15:06Z</time>
      </trkpt>
      <trkpt lat="44.47049" lon="1.71513">
        <ele>295.26</ele>
        <time>2023-09-14T08:15:17Z</time>
      </trkpt>
      <trkpt lat="44.47058" lon="1.71507">
        <ele>295.26</ele>
        <time>2023-09-14T08:15:26Z</time>
      </trkpt>
      <trkpt lat="44.47069" lon="1.71502">
        <ele>295.74</ele>
        <time>2023-09-14T08:15:36Z</time>
      </trkpt>
      <trkpt lat="44.47079" lon="1.71497">
        <ele>296.7</ele>
        <time>2023-09-14T08:15:46Z</time>
      </trkpt>
      <trkpt lat="44.47087" lon="1.71491">
        <ele>297.18</ele>
        <time>2023-09-14T08:15:57Z</time>
      </trkpt>
      <trkpt lat="44.47095" lon="1.71484">
        <ele>297.67</ele>
        <time>2023-09-14T08:16:07Z</time>
      </trkpt>
      <trkpt lat="44.47104" lon="1.71478">
        <ele>298.15</ele>
        <time>2023-09-14T08:16:17Z</time>
      </trkpt>
      <trkpt lat="44.47114" lon="1.71475">
        <ele>298.63</ele>
        <time>2023-09-14T08:16:27Z</time>
      </trkpt>
      <trkpt lat="44.47125" lon="1.7148">
        <ele>299.11</ele>
        <time>2023-09-14T08:16:39Z</time>
      </trkpt>
      <trkpt lat="44.47133" lon="1.71488">
        <ele>299.59</ele>
        <time>2023-09-14T08:16:49Z</time>
      </trkpt>
      <trkpt lat="44.47143" lon="1.71486">
        <ele>300.55</ele>
        <time>2023-09-14T08:17:00Z</time>
      </trkpt>
      <trkpt lat="44.47153" lon="1.71486">
        <ele>301.51</ele>
        <time>2023-09-14T08:17:11Z</time>
      </trkpt>
      <trkpt lat="44.47164" lon="1.71485">
        <ele>301.99</ele>
        <time>2023-09-14T08:17:22Z</time>
      </trkpt>
      <trkpt lat="44.47175" lon="1.71487">
        <ele>302.95</ele>
        <time>2023-09-14T08:17:33Z</time>
      </trkpt>
      <trkpt lat="44.47186" lon="1.7149">
        <ele>303.91</ele>
        <time>2023-09-14T08:17:44Z</time>
      </trkpt>
      <trkpt lat="44.47196" lon="1.71493">
        <ele>304.39</ele>
        <time>2023-09-14T08:17:54Z</time>
      </trkpt>
      <trkpt lat="44.47204" lon="1.71496">
        <ele>304.88</ele>
        <time>2023-09-14T08:18:04Z</time>
      </trkpt>
      <trkpt lat="44.47214" lon="1.71497">
        <ele>305.36</ele>
        <time>2023-09-14T08:18:14Z</time>
      </trkpt>
      <trkpt lat="44.47224" lon="1.71497">
        <ele>305.36</ele>
        <time>2023-09-14T08:18:24Z</time>
      </trkpt>
      <trkpt lat="44.47235" lon="1.71496">
        <ele>305.84</ele>
        <time>2023-09-14T08:18:32Z</time>
      </trkpt>
      <trkpt lat="44.47245" lon="1.71495">
        <ele>305.84</ele>
        <time>2023-09-14T08:18:41Z</time>
      </trkpt>
      <trkpt lat="44.47254" lon="1.71498">
        <ele>306.32</ele>
        <time>2023-09-14T08:18:51Z</time>
      </trkpt>
      <trkpt lat="44.47266" lon="1.71499">
        <ele>306.32</ele>
        <time>2023-09-14T08:19:01Z</time>
      </trkpt>
      <trkpt lat="44.47274" lon="1.71498">
        <ele>306.32</ele>
        <time>2023-09-14T08:19:12Z</time>
      </trkpt>
      <trkpt lat="44.4728" lon="1.71491">
        <ele>306.32</ele>
        <time>2023-09-14T08:19:45Z</time>
      </trkpt>
      <trkpt lat="44.47288" lon="1.71485">
        <ele>304.88</ele>
        <time>2023-09-14T08:19:57Z</time>
      </trkpt>
      <trkpt lat="44.47297" lon="1.71477">
        <ele>304.39</ele>
        <time>2023-09-14T08:20:11Z</time>
      </trkpt>
      <trkpt lat="44.47305" lon="1.71472">
        <ele>303.91</ele>
        <time>2023-09-14T08:20:22Z</time>
      </trkpt>
      <trkpt lat="44.47314" lon="1.71465">
        <ele>301.99</ele>
        <time>2023-09-14T08:20:34Z</time>
      </trkpt>
      <trkpt lat="44.47324" lon="1.71459">
        <ele>301.51</ele>
        <time>2023-09-14T08:20:46Z</time>
      </trkpt>
      <trkpt lat="44.47335" lon="1.71458">
        <ele>300.55</ele>
        <time>2023-09-14T08:20:58Z</time>
      </trkpt>
      <trkpt lat="44.47345" lon="1.71458">
        <ele>298.63</ele>
        <time>2023-09-14T08:21:09Z</time>
      </trkpt>
      <trkpt lat="44.47354" lon="1.71462">
        <ele>297.67</ele>
        <time>2023-09-14T08:21:19Z</time>
      </trkpt>
      <trkpt lat="44.47363" lon="1.7147">
        <ele>296.7</ele>
        <time>2023-09-14T08:21:31Z</time>
      </trkpt>
      <trkpt lat="44.47373" lon="1.71478">
        <ele>294.78</ele>
        <time>2023-09-14T08:21:46Z</time>
      </trkpt>
      <trkpt lat="44.47385" lon="1.71491">
        <ele>294.3</ele>
        <time>2023-09-14T08:22:03Z</time>
      </trkpt>
      <trkpt lat="44.47393" lon="1.715">
        <ele>292.86</ele>
        <time>2023-09-14T08:22:16Z</time>
      </trkpt>
      <trkpt lat="44.47404" lon="1.71509">
        <ele>291.9</ele>
        <time>2023-09-14T08:22:28Z</time>
      </trkpt>
      <trkpt lat="44.4741" lon="1.71523">
        <ele>291.42</ele>
        <time>2023-09-14T08:22:38Z</time>
      </trkpt>
      <trkpt lat="44.47413" lon="1.71536">
        <ele>290.94</ele>
        <time>2023-09-14T08:22:48Z</time>
      </trkpt>
      <trkpt lat="44.47418" lon="1.71555">
        <ele>290.94</ele>
        <time>2023-09-14T08:23:10Z</time>
      </trkpt>
      <trkpt lat="44.47425" lon="1.71571">
        <ele>290.94</ele>
        <time>2023-09-14T08:24:32Z</time>
      </trkpt>
      <trkpt lat="44.47429" lon="1.71587">
        <ele>290.46</ele>
        <time>2023-09-14T08:24:41Z</time>
      </trkpt>
      <trkpt lat="44.47431" lon="1.71599">
        <ele>289.97</ele>
        <time>2023-09-14T08:24:50Z</time>
      </trkpt>
      <trkpt lat="44.47433" lon="1.7162">
        <ele>289.97</ele>
        <time>2023-09-14T08:25:06Z</time>
      </trkpt>
      <trkpt lat="44.47437" lon="1.71638">
        <ele>289.97</ele>
        <time>2023-09-14T08:25:18Z</time>
      </trkpt>
      <trkpt lat="44.47443" lon="1.71656">
        <ele>290.94</ele>
        <time>2023-09-14T08:25:29Z</time>
      </trkpt>
      <trkpt lat="44.47447" lon="1.71673">
        <ele>292.38</ele>
        <time>2023-09-14T08:25:40Z</time>
      </trkpt>
      <trkpt lat="44.47454" lon="1.71688">
        <ele>293.82</ele>
        <time>2023-09-14T08:25:51Z</time>
      </trkpt>
      <trkpt lat="44.4746" lon="1.71702">
        <ele>294.78</ele>
        <time>2023-09-14T08:26:02Z</time>
      </trkpt>
      <trkpt lat="44.47469" lon="1.71712">
        <ele>295.26</ele>
        <time>2023-09-14T08:26:10Z</time>
      </trkpt>
      <trkpt lat="44.47476" lon="1.71722">
        <ele>295.74</ele>
        <time>2023-09-14T08:26:19Z</time>
      </trkpt>
      <trkpt lat="44.47484" lon="1.71731">
        <ele>296.22</ele>
        <time>2023-09-14T08:26:28Z</time>
      </trkpt>
      <trkpt lat="44.47493" lon="1.71744">
        <ele>296.7</ele>
        <time>2023-09-14T08:26:38Z</time>
      </trkpt>
      <trkpt lat="44.47502" lon="1.71757">
        <ele>297.18</ele>
        <time>2023-09-14T08:26:48Z</time>
      </trkpt>
      <trkpt lat="44.4751" lon="1.71768">
        <ele>297.67</ele>
        <time>2023-09-14T08:26:59Z</time>
      </trkpt>
      <trkpt lat="44.47517" lon="1.71779">
        <ele>298.63</ele>
        <time>2023-09-14T08:27:10Z</time>
      </trkpt>
      <trkpt lat="44.47526" lon="1.7179">
        <ele>299.11</ele>
        <time>2023-09-14T08:27:20Z</time>
      </trkpt>
      <trkpt lat="44.47535" lon="1.71799">
        <ele>299.59</ele>
        <time>2023-09-14T08:27:30Z</time>
      </trkpt>
      <trkpt lat="44.47543" lon="1.7181">
        <ele>300.55</ele>
        <time>2023-09-14T08:27:41Z</time>
      </trkpt>
      <trkpt lat="44.47552" lon="1.7182">
        <ele>301.03</ele>
        <time>2023-09-14T08:27:51Z</time>
      </trkpt>
      <trkpt lat="44.47558" lon="1.71829">
        <ele>301.51</ele>
        <time>2023-09-14T08:28:01Z</time>
      </trkpt>
      <trkpt lat="44.47566" lon="1.7184">
        <ele>302.47</ele>
        <time>2023-09-14T08:28:11Z</time>
      </trkpt>
      <trkpt lat="44.47575" lon="1.71849">
        <ele>302.47</ele>
        <time>2023-09-14T08:28:21Z</time>
      </trkpt>
      <trkpt lat="44.47584" lon="1.71859">
        <ele>302.95</ele>
        <time>2023-09-14T08:28:34Z</time>
      </trkpt>
      <trkpt lat="44.47591" lon="1.71868">
        <ele>303.43</ele>
        <time>2023-09-14T08:28:43Z</time>
      </trkpt>
      <trkpt lat="44.476" lon="1.71877">
        <ele>304.39</ele>
        <time>2023-09-14T08:28:52Z</time>
      </trkpt>
      <trkpt lat="44.47608" lon="1.71885">
        <ele>304.88</ele>
        <time>2023-09-14T08:29:02Z</time>
      </trkpt>
      <trkpt lat="44.47617" lon="1.71895">
        <ele>305.36</ele>
        <time>2023-09-14T08:29:12Z</time>
      </trkpt>
      <trkpt lat="44.47625" lon="1.71903">
        <ele>305.84</ele>
        <time>2023-09-14T08:29:21Z</time>
      </trkpt>
      <trkpt lat="44.47634" lon="1.71912">
        <ele>306.32</ele>
        <time>2023-09-14T08:29:30Z</time>
      </trkpt>
      <trkpt lat="44.47643" lon="1.7192">
        <ele>306.32</ele>
        <time>2023-09-14T08:29:40Z</time>
      </trkpt>
      <trkpt lat="44.47651" lon="1.7193">
        <ele>306.8</ele>
        <time>2023-09-14T08:29:50Z</time>
      </trkpt>
      <trkpt lat="44.47658" lon="1.7194">
        <ele>307.76</ele>
        <time>2023-09-14T08:30:00Z</time>
      </trkpt>
      <trkpt lat="44.47666" lon="1.71949">
        <ele>308.24</ele>
        <time>2023-09-14T08:30:09Z</time>
      </trkpt>
      <trkpt lat="44.47674" lon="1.71958">
        <ele>308.72</ele>
        <time>2023-09-14T08:30:19Z</time>
      </trkpt>
      <trkpt lat="44.47682" lon="1.71966">
        <ele>309.2</ele>
        <time>2023-09-14T08:30:29Z</time>
      </trkpt>
      <trkpt lat="44.47691" lon="1.71975">
        <ele>309.68</ele>
        <time>2023-09-14T08:30:39Z</time>
      </trkpt>
      <trkpt lat="44.47699" lon="1.71982">
        <ele>309.68</ele>
        <time>2023-09-14T08:30:48Z</time>
      </trkpt>
      <trkpt lat="44.47706" lon="1.71991">
        <ele>310.16</ele>
        <time>2023-09-14T08:30:57Z</time>
      </trkpt>
      <trkpt lat="44.47715" lon="1.71999">
        <ele>310.64</ele>
        <time>2023-09-14T08:31:07Z</time>
      </trkpt>
      <trkpt lat="44.47724" lon="1.7201">
        <ele>311.12</ele>
        <time>2023-09-14T08:31:17Z</time>
      </trkpt>
      <trkpt lat="44.47732" lon="1.72019">
        <ele>311.12</ele>
        <time>2023-09-14T08:31:27Z</time>
      </trkpt>
      <trkpt lat="44.47739" lon="1.72028">
        <ele>311.12</ele>
        <time>2023-09-14T08:31:36Z</time>
      </trkpt>
      <trkpt lat="44.47746" lon="1.72041">
        <ele>311.12</ele>
        <time>2023-09-14T08:31:46Z</time>
      </trkpt>
      <trkpt lat="44.47751" lon="1.72054">
        <ele>312.09</ele>
        <time>2023-09-14T08:31:57Z</time>
      </trkpt>
      <trkpt lat="44.47754" lon="1.72068">
        <ele>312.09</ele>
        <time>2023-09-14T08:32:08Z</time>
      </trkpt>
      <trkpt lat="44.47757" lon="1.72082">
        <ele>312.57</ele>
        <time>2023-09-14T08:32:19Z</time>
      </trkpt>
      <trkpt lat="44.47759" lon="1.72098">
        <ele>313.53</ele>
        <time>2023-09-14T08:32:30Z</time>
      </trkpt>
      <trkpt lat="44.4776" lon="1.72113">
        <ele>314.97</ele>
        <time>2023-09-14T08:32:41Z</time>
      </trkpt>
      <trkpt lat="44.47759" lon="1.72129">
        <ele>315.45</ele>
        <time>2023-09-14T08:32:52Z</time>
      </trkpt>
      <trkpt lat="44.47758" lon="1.72144">
        <ele>315.93</ele>
        <time>2023-09-14T08:33:03Z</time>
      </trkpt>
      <trkpt lat="44.47757" lon="1.7216">
        <ele>316.41</ele>
        <time>2023-09-14T08:33:13Z</time>
      </trkpt>
      <trkpt lat="44.47756" lon="1.72176">
        <ele>316.89</ele>
        <time>2023-09-14T08:33:24Z</time>
      </trkpt>
      <trkpt lat="44.47756" lon="1.72192">
        <ele>317.37</ele>
        <time>2023-09-14T08:33:35Z</time>
      </trkpt>
      <trkpt lat="44.47756" lon="1.72214">
        <ele>317.37</ele>
        <time>2023-09-14T08:33:50Z</time>
      </trkpt>
      <trkpt lat="44.47752" lon="1.72231">
        <ele>317.37</ele>
        <time>2023-09-14T08:34:01Z</time>
      </trkpt>
      <trkpt lat="44.47745" lon="1.72246">
        <ele>317.37</ele>
        <time>2023-09-14T08:34:11Z</time>
      </trkpt>
      <trkpt lat="44.47743" lon="1.7226">
        <ele>317.37</ele>
        <time>2023-09-14T08:34:22Z</time>
      </trkpt>
      <trkpt lat="44.47749" lon="1.72272">
        <ele>317.37</ele>
        <time>2023-09-14T08:34:32Z</time>
      </trkpt>
      <trkpt lat="44.47758" lon="1.72283">
        <ele>317.37</ele>
        <time>2023-09-14T08:34:53Z</time>
      </trkpt>
      <trkpt lat="44.47767" lon="1.72291">
        <ele>317.37</ele>
        <time>2023-09-14T08:35:03Z</time>
      </trkpt>
      <trkpt lat="44.47775" lon="1.72302">
        <ele>317.37</ele>
        <time>2023-09-14T08:35:13Z</time>
      </trkpt>
      <trkpt lat="44.47783" lon="1.72313">
        <ele>317.37</ele>
        <time>2023-09-14T08:35:23Z</time>
      </trkpt>
      <trkpt lat="44.47791" lon="1.72321">
        <ele>316.41</ele>
        <time>2023-09-14T08:35:32Z</time>
      </trkpt>
      <trkpt lat="44.47799" lon="1.72331">
        <ele>316.41</ele>
        <time>2023-09-14T08:35:42Z</time>
      </trkpt>
      <trkpt lat="44.47806" lon="1.72341">
        <ele>316.41</ele>
        <time>2023-09-14T08:35:52Z</time>
      </trkpt>
      <trkpt lat="44.47814" lon="1.7235">
        <ele>316.41</ele>
        <time>2023-09-14T08:36:03Z</time>
      </trkpt>
      <trkpt lat="44.47822" lon="1.72359">
        <ele>316.41</ele>
        <time>2023-09-14T08:36:13Z</time>
      </trkpt>
      <trkpt lat="44.4783" lon="1.72368">
        <ele>316.41</ele>
        <time>2023-09-14T08:36:24Z</time>
      </trkpt>
      <trkpt lat="44.4784" lon="1.72379">
        <ele>316.41</ele>
        <time>2023-09-14T08:36:34Z</time>
      </trkpt>
      <trkpt lat="44.4785" lon="1.72389">
        <ele>316.41</ele>
        <time>2023-09-14T08:36:44Z</time>
      </trkpt>
      <trkpt lat="44.4786" lon="1.72396">
        <ele>315.93</ele>
        <time>2023-09-14T08:36:55Z</time>
      </trkpt>
      <trkpt lat="44.47873" lon="1.72395">
        <ele>316.41</ele>
        <time>2023-09-14T08:37:13Z</time>
      </trkpt>
      <trkpt lat="44.47883" lon="1.72397">
        <ele>315.93</ele>
        <time>2023-09-14T08:37:24Z</time>
      </trkpt>
      <trkpt lat="44.4789" lon="1.72401">
        <ele>315.45</ele>
        <time>2023-09-14T08:38:17Z</time>
      </trkpt>
      <trkpt lat="44.47897" lon="1.72395">
        <ele>315.93</ele>
        <time>2023-09-14T08:40:33Z</time>
      </trkpt>
      <trkpt lat="44.47908" lon="1.72394">
        <ele>315.45</ele>
        <time>2023-09-14T08:40:45Z</time>
      </trkpt>
      <trkpt lat="44.4792" lon="1.72395">
        <ele>314.49</ele>
        <time>2023-09-14T08:40:56Z</time>
      </trkpt>
      <trkpt lat="44.4793" lon="1.72396">
        <ele>313.53</ele>
        <time>2023-09-14T08:41:06Z</time>
      </trkpt>
      <trkpt lat="44.47941" lon="1.72396">
        <ele>312.57</ele>
        <time>2023-09-14T08:41:17Z</time>
      </trkpt>
      <trkpt lat="44.47953" lon="1.72397">
        <ele>312.09</ele>
        <time>2023-09-14T08:41:27Z</time>
      </trkpt>
      <trkpt lat="44.47966" lon="1.72399">
        <ele>311.6</ele>
        <time>2023-09-14T08:41:37Z</time>
      </trkpt>
      <trkpt lat="44.47977" lon="1.72405">
        <ele>311.12</ele>
        <time>2023-09-14T08:42:08Z</time>
      </trkpt>
      <trkpt lat="44.47987" lon="1.72401">
        <ele>310.64</ele>
        <time>2023-09-14T08:42:18Z</time>
      </trkpt>
      <trkpt lat="44.47994" lon="1.72396">
        <ele>310.16</ele>
        <time>2023-09-14T08:42:53Z</time>
      </trkpt>
      <trkpt lat="44.48007" lon="1.724">
        <ele>311.6</ele>
        <time>2023-09-14T08:49:20Z</time>
      </trkpt>
      <trkpt lat="44.48018" lon="1.724">
        <ele>311.6</ele>
        <time>2023-09-14T08:49:31Z</time>
      </trkpt>
      <trkpt lat="44.48028" lon="1.72401">
        <ele>311.6</ele>
        <time>2023-09-14T08:49:42Z</time>
      </trkpt>
      <trkpt lat="44.48039" lon="1.72403">
        <ele>311.6</ele>
        <time>2023-09-14T08:49:54Z</time>
      </trkpt>
      <trkpt lat="44.48051" lon="1.72402">
        <ele>311.6</ele>
        <time>2023-09-14T08:50:03Z</time>
      </trkpt>
      <trkpt lat="44.48063" lon="1.72403">
        <ele>311.6</ele>
        <time>2023-09-14T08:50:12Z</time>
      </trkpt>
      <trkpt lat="44.48073" lon="1.72403">
        <ele>311.6</ele>
        <time>2023-09-14T08:50:21Z</time>
      </trkpt>
      <trkpt lat="44.48083" lon="1.72404">
        <ele>311.6</ele>
        <time>2023-09-14T08:50:30Z</time>
      </trkpt>
      <trkpt lat="44.48093" lon="1.72406">
        <ele>311.6</ele>
        <time>2023-09-14T08:50:41Z</time>
      </trkpt>
      <trkpt lat="44.48105" lon="1.72408">
        <ele>311.6</ele>
        <time>2023-09-14T08:50:54Z</time>
      </trkpt>
      <trkpt lat="44.48117" lon="1.72409">
        <ele>311.6</ele>
        <time>2023-09-14T08:51:05Z</time>
      </trkpt>
      <trkpt lat="44.4813" lon="1.72408">
        <ele>311.6</ele>
        <time>2023-09-14T08:51:14Z</time>
      </trkpt>
      <trkpt lat="44.48141" lon="1.72405">
        <ele>312.57</ele>
        <time>2023-09-14T08:51:24Z</time>
      </trkpt>
      <trkpt lat="44.4815" lon="1.72399">
        <ele>312.57</ele>
        <time>2023-09-14T08:51:33Z</time>
      </trkpt>
      <trkpt lat="44.4816" lon="1.7239">
        <ele>313.53</ele>
        <time>2023-09-14T08:51:43Z</time>
      </trkpt>
      <trkpt lat="44.48169" lon="1.72384">
        <ele>314.01</ele>
        <time>2023-09-14T08:51:52Z</time>
      </trkpt>
      <trkpt lat="44.48179" lon="1.72386">
        <ele>314.49</ele>
        <time>2023-09-14T08:52:01Z</time>
      </trkpt>
      <trkpt lat="44.48188" lon="1.72394">
        <ele>314.97</ele>
        <time>2023-09-14T08:52:10Z</time>
      </trkpt>
      <trkpt lat="44.48195" lon="1.72405">
        <ele>315.45</ele>
        <time>2023-09-14T08:52:19Z</time>
      </trkpt>
      <trkpt lat="44.48201" lon="1.72417">
        <ele>315.45</ele>
        <time>2023-09-14T08:52:28Z</time>
      </trkpt>
      <trkpt lat="44.4821" lon="1.72428">
        <ele>315.93</ele>
        <time>2023-09-14T08:52:38Z</time>
      </trkpt>
      <trkpt lat="44.48217" lon="1.72439">
        <ele>316.89</ele>
        <time>2023-09-14T08:52:48Z</time>
      </trkpt>
      <trkpt lat="44.48223" lon="1.7245">
        <ele>317.37</ele>
        <time>2023-09-14T08:52:58Z</time>
      </trkpt>
      <trkpt lat="44.48229" lon="1.72463">
        <ele>318.33</ele>
        <time>2023-09-14T08:53:11Z</time>
      </trkpt>
      <trkpt lat="44.48235" lon="1.72476">
        <ele>319.3</ele>
        <time>2023-09-14T08:53:23Z</time>
      </trkpt>
      <trkpt lat="44.4824" lon="1.7249">
        <ele>320.74</ele>
        <time>2023-09-14T08:53:35Z</time>
      </trkpt>
      <trkpt lat="44.48247" lon="1.72503">
        <ele>322.18</ele>
        <time>2023-09-14T08:53:49Z</time>
      </trkpt>
      <trkpt lat="44.48256" lon="1.72514">
        <ele>323.62</ele>
        <time>2023-09-14T08:54:01Z</time>
      </trkpt>
      <trkpt lat="44.48267" lon="1.72522">
        <ele>325.06</ele>
        <time>2023-09-14T08:54:13Z</time>
      </trkpt>
      <trkpt lat="44.48276" lon="1.72531">
        <ele>326.5</ele>
        <time>2023-09-14T08:54:25Z</time>
      </trkpt>
      <trkpt lat="44.48284" lon="1.7254">
        <ele>328.43</ele>
        <time>2023-09-14T08:54:37Z</time>
      </trkpt>
      <trkpt lat="44.48292" lon="1.72549">
        <ele>330.83</ele>
        <time>2023-09-14T08:54:50Z</time>
      </trkpt>
      <trkpt lat="44.48301" lon="1.72558">
        <ele>332.75</ele>
        <time>2023-09-14T08:55:04Z</time>
      </trkpt>
      <trkpt lat="44.48311" lon="1.72566">
        <ele>334.2</ele>
        <time>2023-09-14T08:55:16Z</time>
      </trkpt>
      <trkpt lat="44.4832" lon="1.72573">
        <ele>335.64</ele>
        <time>2023-09-14T08:55:28Z</time>
      </trkpt>
      <trkpt lat="44.48328" lon="1.72581">
        <ele>337.56</ele>
        <time>2023-09-14T08:55:40Z</time>
      </trkpt>
      <trkpt lat="44.48334" lon="1.72591">
        <ele>338.52</ele>
        <time>2023-09-14T08:55:50Z</time>
      </trkpt>
      <trkpt lat="44.48336" lon="1.72605">
        <ele>339.48</ele>
        <time>2023-09-14T08:56:00Z</time>
      </trkpt>
      <trkpt lat="44.48335" lon="1.7262">
        <ele>339.96</ele>
        <time>2023-09-14T08:56:10Z</time>
      </trkpt>
      <trkpt lat="44.48336" lon="1.72634">
        <ele>340.44</ele>
        <time>2023-09-14T08:56:20Z</time>
      </trkpt>
      <trkpt lat="44.48336" lon="1.72646">
        <ele>340.92</ele>
        <time>2023-09-14T08:56:29Z</time>
      </trkpt>
      <trkpt lat="44.48337" lon="1.7266">
        <ele>341.41</ele>
        <time>2023-09-14T08:56:38Z</time>
      </trkpt>
      <trkpt lat="44.48338" lon="1.72673">
        <ele>341.89</ele>
        <time>2023-09-14T08:56:47Z</time>
      </trkpt>
      <trkpt lat="44.48338" lon="1.72688">
        <ele>342.85</ele>
        <time>2023-09-14T08:59:36Z</time>
      </trkpt>
      <trkpt lat="44.4834" lon="1.72701">
        <ele>342.85</ele>
        <time>2023-09-14T08:59:46Z</time>
      </trkpt>
      <trkpt lat="44.48341" lon="1.72714">
        <ele>342.85</ele>
        <time>2023-09-14T08:59:56Z</time>
      </trkpt>
      <trkpt lat="44.48342" lon="1.72728">
        <ele>342.85</ele>
        <time>2023-09-14T09:00:06Z</time>
      </trkpt>
      <trkpt lat="44.48343" lon="1.72742">
        <ele>342.85</ele>
        <time>2023-09-14T09:00:16Z</time>
      </trkpt>
      <trkpt lat="44.48343" lon="1.72756">
        <ele>341.89</ele>
        <time>2023-09-14T09:00:26Z</time>
      </trkpt>
      <trkpt lat="44.48343" lon="1.72769">
        <ele>341.41</ele>
        <time>2023-09-14T09:00:36Z</time>
      </trkpt>
      <trkpt lat="44.48339" lon="1.72782">
        <ele>340.92</ele>
        <time>2023-09-14T09:00:46Z</time>
      </trkpt>
      <trkpt lat="44.48331" lon="1.72791">
        <ele>340.92</ele>
        <time>2023-09-14T09:00:55Z</time>
      </trkpt>
      <trkpt lat="44.48323" lon="1.72798">
        <ele>340.92</ele>
        <time>2023-09-14T09:01:04Z</time>
      </trkpt>
      <trkpt lat="44.48314" lon="1.72807">
        <ele>342.85</ele>
        <time>2023-09-14T09:01:14Z</time>
      </trkpt>
      <trkpt lat="44.48306" lon="1.72816">
        <ele>343.81</ele>
        <time>2023-09-14T09:01:24Z</time>
      </trkpt>
      <trkpt lat="44.48299" lon="1.72826">
        <ele>344.29</ele>
        <time>2023-09-14T09:01:34Z</time>
      </trkpt>
      <trkpt lat="44.4829" lon="1.72835">
        <ele>345.25</ele>
        <time>2023-09-14T09:01:44Z</time>
      </trkpt>
      <trkpt lat="44.48282" lon="1.72842">
        <ele>346.21</ele>
        <time>2023-09-14T09:01:53Z</time>
      </trkpt>
      <trkpt lat="44.48273" lon="1.72849">
        <ele>346.69</ele>
        <time>2023-09-14T09:02:03Z</time>
      </trkpt>
      <trkpt lat="44.48264" lon="1.72858">
        <ele>347.17</ele>
        <time>2023-09-14T09:02:14Z</time>
      </trkpt>
      <trkpt lat="44.48254" lon="1.72866">
        <ele>347.17</ele>
        <time>2023-09-14T09:02:25Z</time>
      </trkpt>
      <trkpt lat="44.48244" lon="1.72876">
        <ele>347.65</ele>
        <time>2023-09-14T09:02:36Z</time>
      </trkpt>
      <trkpt lat="44.48236" lon="1.72885">
        <ele>348.13</ele>
        <time>2023-09-14T09:02:45Z</time>
      </trkpt>
      <trkpt lat="44.48227" lon="1.72893">
        <ele>348.13</ele>
        <time>2023-09-14T09:02:54Z</time>
      </trkpt>
      <trkpt lat="44.48218" lon="1.72903">
        <ele>348.13</ele>
        <time>2023-09-14T09:03:04Z</time>
      </trkpt>
      <trkpt lat="44.4821" lon="1.72912">
        <ele>348.13</ele>
        <time>2023-09-14T09:03:13Z</time>
      </trkpt>
      <trkpt lat="44.48202" lon="1.72921">
        <ele>348.13</ele>
        <time>2023-09-14T09:03:21Z</time>
      </trkpt>
      <trkpt lat="44.48194" lon="1.72931">
        <ele>346.21</ele>
        <time>2023-09-14T09:03:30Z</time>
      </trkpt>
      <trkpt lat="44.48186" lon="1.72941">
        <ele>345.25</ele>
        <time>2023-09-14T09:03:39Z</time>
      </trkpt>
      <trkpt lat="44.48179" lon="1.72952">
        <ele>344.77</ele>
        <time>2023-09-14T09:03:48Z</time>
      </trkpt>
      <trkpt lat="44.48171" lon="1.72962">
        <ele>344.29</ele>
        <time>2023-09-14T09:03:57Z</time>
      </trkpt>
      <trkpt lat="44.48162" lon="1.72972">
        <ele>344.29</ele>
        <time>2023-09-14T09:04:06Z</time>
      </trkpt>
      <trkpt lat="44.48155" lon="1.72983">
        <ele>344.29</ele>
        <time>2023-09-14T09:04:16Z</time>
      </trkpt>
      <trkpt lat="44.48147" lon="1.72995">
        <ele>344.29</ele>
        <time>2023-09-14T09:04:27Z</time>
      </trkpt>
      <trkpt lat="44.48138" lon="1.73004">
        <ele>343.81</ele>
        <time>2023-09-14T09:04:37Z</time>
      </trkpt>
      <trkpt lat="44.48128" lon="1.73013">
        <ele>343.81</ele>
        <time>2023-09-14T09:04:48Z</time>
      </trkpt>
      <trkpt lat="44.48116" lon="1.73015">
        <ele>342.37</ele>
        <time>2023-09-14T09:04:59Z</time>
      </trkpt>
      <trkpt lat="44.48104" lon="1.73015">
        <ele>341.41</ele>
        <time>2023-09-14T09:05:10Z</time>
      </trkpt>
      <trkpt lat="44.48092" lon="1.73014">
        <ele>340.44</ele>
        <time>2023-09-14T09:05:21Z</time>
      </trkpt>
      <trkpt lat="44.4808" lon="1.73013">
        <ele>339</ele>
        <time>2023-09-14T09:05:32Z</time>
      </trkpt>
      <trkpt lat="44.48067" lon="1.73013">
        <ele>337.56</ele>
        <time>2023-09-14T09:05:44Z</time>
      </trkpt>
      <trkpt lat="44.48056" lon="1.73011">
        <ele>337.08</ele>
        <time>2023-09-14T09:05:55Z</time>
      </trkpt>
      <trkpt lat="44.48045" lon="1.7301">
        <ele>336.12</ele>
        <time>2023-09-14T09:06:06Z</time>
      </trkpt>
      <trkpt lat="44.4803" lon="1.7301">
        <ele>335.16</ele>
        <time>2023-09-14T09:06:48Z</time>
      </trkpt>
      <trkpt lat="44.48022" lon="1.73011">
        <ele>335.16</ele>
        <time>2023-09-14T09:09:47Z</time>
      </trkpt>
      <trkpt lat="44.48013" lon="1.73017">
        <ele>334.68</ele>
        <time>2023-09-14T09:09:59Z</time>
      </trkpt>
      <trkpt lat="44.48003" lon="1.73025">
        <ele>334.68</ele>
        <time>2023-09-14T09:10:12Z</time>
      </trkpt>
      <trkpt lat="44.47994" lon="1.7303">
        <ele>334.68</ele>
        <time>2023-09-14T09:10:23Z</time>
      </trkpt>
      <trkpt lat="44.47983" lon="1.73035">
        <ele>334.68</ele>
        <time>2023-09-14T09:10:34Z</time>
      </trkpt>
      <trkpt lat="44.47972" lon="1.73036">
        <ele>334.68</ele>
        <time>2023-09-14T09:10:46Z</time>
      </trkpt>
      <trkpt lat="44.4796" lon="1.73034">
        <ele>334.68</ele>
        <time>2023-09-14T09:10:57Z</time>
      </trkpt>
      <trkpt lat="44.47949" lon="1.73031">
        <ele>334.2</ele>
        <time>2023-09-14T09:11:08Z</time>
      </trkpt>
      <trkpt lat="44.47938" lon="1.73028">
        <ele>333.71</ele>
        <time>2023-09-14T09:11:19Z</time>
      </trkpt>
      <trkpt lat="44.47926" lon="1.73025">
        <ele>333.23</ele>
        <time>2023-09-14T09:11:30Z</time>
      </trkpt>
      <trkpt lat="44.47915" lon="1.73022">
        <ele>333.23</ele>
        <time>2023-09-14T09:11:40Z</time>
      </trkpt>
      <trkpt lat="44.47904" lon="1.73018">
        <ele>332.27</ele>
        <time>2023-09-14T09:11:50Z</time>
      </trkpt>
      <trkpt lat="44.47893" lon="1.73016">
        <ele>332.27</ele>
        <time>2023-09-14T09:12:00Z</time>
      </trkpt>
      <trkpt lat="44.47882" lon="1.73014">
        <ele>331.79</ele>
        <time>2023-09-14T09:12:10Z</time>
      </trkpt>
      <trkpt lat="44.47871" lon="1.73015">
        <ele>331.79</ele>
        <time>2023-09-14T09:12:19Z</time>
      </trkpt>
      <trkpt lat="44.47861" lon="1.73016">
        <ele>331.79</ele>
        <time>2023-09-14T09:12:28Z</time>
      </trkpt>
      <trkpt lat="44.47851" lon="1.73016">
        <ele>331.79</ele>
        <time>2023-09-14T09:12:37Z</time>
      </trkpt>
      <trkpt lat="44.4784" lon="1.73016">
        <ele>331.79</ele>
        <time>2023-09-14T09:12:47Z</time>
      </trkpt>
      <trkpt lat="44.47829" lon="1.73015">
        <ele>331.79</ele>
        <time>2023-09-14T09:12:57Z</time>
      </trkpt>
      <trkpt lat="44.47819" lon="1.73012">
        <ele>331.79</ele>
        <time>2023-09-14T09:13:06Z</time>
      </trkpt>
      <trkpt lat="44.47808" lon="1.73009">
        <ele>331.79</ele>
        <time>2023-09-14T09:13:15Z</time>
      </trkpt>
      <trkpt lat="44.47798" lon="1.73006">
        <ele>333.23</ele>
        <time>2023-09-14T09:13:24Z</time>
      </trkpt>
      <trkpt lat="44.47789" lon="1.73003">
        <ele>333.71</ele>
        <time>2023-09-14T09:13:33Z</time>
      </trkpt>
      <trkpt lat="44.47778" lon="1.73">
        <ele>333.71</ele>
        <time>2023-09-14T09:13:43Z</time>
      </trkpt>
      <trkpt lat="44.47767" lon="1.73">
        <ele>334.2</ele>
        <time>2023-09-14T09:13:53Z</time>
      </trkpt>
      <trkpt lat="44.47756" lon="1.73">
        <ele>334.2</ele>
        <time>2023-09-14T09:14:03Z</time>
      </trkpt>
      <trkpt lat="44.47745" lon="1.73003">
        <ele>334.2</ele>
        <time>2023-09-14T09:14:14Z</time>
      </trkpt>
      <trkpt lat="44.47734" lon="1.7301">
        <ele>334.68</ele>
        <time>2023-09-14T09:14:24Z</time>
      </trkpt>
      <trkpt lat="44.47727" lon="1.73021">
        <ele>334.68</ele>
        <time>2023-09-14T09:14:34Z</time>
      </trkpt>
      <trkpt lat="44.4772" lon="1.73034">
        <ele>334.68</ele>
        <time>2023-09-14T09:14:44Z</time>
      </trkpt>
      <trkpt lat="44.47716" lon="1.73047">
        <ele>333.23</ele>
        <time>2023-09-14T09:14:53Z</time>
      </trkpt>
      <trkpt lat="44.47713" lon="1.73061">
        <ele>332.75</ele>
        <time>2023-09-14T09:15:02Z</time>
      </trkpt>
      <trkpt lat="44.47711" lon="1.73075">
        <ele>331.79</ele>
        <time>2023-09-14T09:15:11Z</time>
      </trkpt>
      <trkpt lat="44.47709" lon="1.73088">
        <ele>331.31</ele>
        <time>2023-09-14T09:15:21Z</time>
      </trkpt>
      <trkpt lat="44.47707" lon="1.73103">
        <ele>329.87</ele>
        <time>2023-09-14T09:15:34Z</time>
      </trkpt>
      <trkpt lat="44.47715" lon="1.73108">
        <ele>329.87</ele>
        <time>2023-09-14T09:15:49Z</time>
      </trkpt>
      <trkpt lat="44.47726" lon="1.73112">
        <ele>329.39</ele>
        <time>2023-09-14T09:16:14Z</time>
      </trkpt>
      <trkpt lat="44.47737" lon="1.73115">
        <ele>329.39</ele>
        <time>2023-09-14T09:16:25Z</time>
      </trkpt>
      <trkpt lat="44.47746" lon="1.73119">
        <ele>329.39</ele>
        <time>2023-09-14T09:16:33Z</time>
      </trkpt>
      <trkpt lat="44.47757" lon="1.73125">
        <ele>329.39</ele>
        <time>2023-09-14T09:16:43Z</time>
      </trkpt>
      <trkpt lat="44.47768" lon="1.73133">
        <ele>330.83</ele>
        <time>2023-09-14T09:16:53Z</time>
      </trkpt>
      <trkpt lat="44.47775" lon="1.73144">
        <ele>331.31</ele>
        <time>2023-09-14T09:17:03Z</time>
      </trkpt>
      <trkpt lat="44.47785" lon="1.73157">
        <ele>331.79</ele>
        <time>2023-09-14T09:17:14Z</time>
      </trkpt>
      <trkpt lat="44.47795" lon="1.73168">
        <ele>332.75</ele>
        <time>2023-09-14T09:17:25Z</time>
      </trkpt>
      <trkpt lat="44.47804" lon="1.73178">
        <ele>333.71</ele>
        <time>2023-09-14T09:17:36Z</time>
      </trkpt>
      <trkpt lat="44.47813" lon="1.7319">
        <ele>334.68</ele>
        <time>2023-09-14T09:17:51Z</time>
      </trkpt>
      <trkpt lat="44.47829" lon="1.73206">
        <ele>335.64</ele>
        <time>2023-09-14T09:18:23Z</time>
      </trkpt>
      <trkpt lat="44.47837" lon="1.73216">
        <ele>336.6</ele>
        <time>2023-09-14T09:18:34Z</time>
      </trkpt>
      <trkpt lat="44.47844" lon="1.73224">
        <ele>337.56</ele>
        <time>2023-09-14T09:18:45Z</time>
      </trkpt>
      <trkpt lat="44.47855" lon="1.73234">
        <ele>339</ele>
        <time>2023-09-14T09:19:01Z</time>
      </trkpt>
      <trkpt lat="44.4787" lon="1.73246">
        <ele>340.92</ele>
        <time>2023-09-14T09:19:24Z</time>
      </trkpt>
      <trkpt lat="44.47884" lon="1.73259">
        <ele>343.33</ele>
        <time>2023-09-14T09:20:08Z</time>
      </trkpt>
      <trkpt lat="44.47894" lon="1.73267">
        <ele>344.77</ele>
        <time>2023-09-14T09:20:22Z</time>
      </trkpt>
      <trkpt lat="44.47904" lon="1.73275">
        <ele>346.21</ele>
        <time>2023-09-14T09:20:35Z</time>
      </trkpt>
      <trkpt lat="44.47913" lon="1.73285">
        <ele>347.65</ele>
        <time>2023-09-14T09:20:48Z</time>
      </trkpt>
      <trkpt lat="44.47928" lon="1.73296">
        <ele>348.62</ele>
        <time>2023-09-14T09:21:22Z</time>
      </trkpt>
      <trkpt lat="44.47936" lon="1.73305">
        <ele>350.54</ele>
        <time>2023-09-14T09:21:36Z</time>
      </trkpt>
      <trkpt lat="44.47948" lon="1.73314">
        <ele>351.5</ele>
        <time>2023-09-14T09:21:51Z</time>
      </trkpt>
      <trkpt lat="44.47958" lon="1.73323">
        <ele>352.46</ele>
        <time>2023-09-14T09:22:05Z</time>
      </trkpt>
      <trkpt lat="44.47967" lon="1.73334">
        <ele>353.42</ele>
        <time>2023-09-14T09:22:47Z</time>
      </trkpt>
      <trkpt lat="44.47978" lon="1.73341">
        <ele>354.38</ele>
        <time>2023-09-14T09:23:01Z</time>
      </trkpt>
      <trkpt lat="44.47987" lon="1.73349">
        <ele>355.83</ele>
        <time>2023-09-14T09:23:13Z</time>
      </trkpt>
      <trkpt lat="44.47997" lon="1.73356">
        <ele>357.75</ele>
        <time>2023-09-14T09:23:28Z</time>
      </trkpt>
      <trkpt lat="44.48006" lon="1.73367">
        <ele>358.71</ele>
        <time>2023-09-14T09:23:40Z</time>
      </trkpt>
      <trkpt lat="44.48012" lon="1.73383">
        <ele>358.71</ele>
        <time>2023-09-14T09:23:52Z</time>
      </trkpt>
      <trkpt lat="44.48014" lon="1.73397">
        <ele>358.71</ele>
        <time>2023-09-14T09:24:20Z</time>
      </trkpt>
      <trkpt lat="44.48019" lon="1.73412">
        <ele>359.19</ele>
        <time>2023-09-14T09:24:32Z</time>
      </trkpt>
      <trkpt lat="44.48025" lon="1.73425">
        <ele>359.19</ele>
        <time>2023-09-14T09:24:42Z</time>
      </trkpt>
      <trkpt lat="44.4803" lon="1.73439">
        <ele>359.19</ele>
        <time>2023-09-14T09:24:52Z</time>
      </trkpt>
      <trkpt lat="44.48034" lon="1.73452">
        <ele>359.19</ele>
        <time>2023-09-14T09:25:02Z</time>
      </trkpt>
      <trkpt lat="44.48038" lon="1.73466">
        <ele>359.19</ele>
        <time>2023-09-14T09:25:13Z</time>
      </trkpt>
      <trkpt lat="44.48042" lon="1.73478">
        <ele>359.19</ele>
        <time>2023-09-14T09:25:23Z</time>
      </trkpt>
      <trkpt lat="44.48046" lon="1.73491">
        <ele>359.19</ele>
        <time>2023-09-14T09:25:33Z</time>
      </trkpt>
      <trkpt lat="44.48052" lon="1.73503">
        <ele>359.19</ele>
        <time>2023-09-14T09:25:43Z</time>
      </trkpt>
      <trkpt lat="44.48058" lon="1.73514">
        <ele>359.19</ele>
        <time>2023-09-14T09:25:53Z</time>
      </trkpt>
      <trkpt lat="44.48066" lon="1.73524">
        <ele>359.19</ele>
        <time>2023-09-14T09:26:06Z</time>
      </trkpt>
      <trkpt lat="44.48073" lon="1.73534">
        <ele>359.19</ele>
        <time>2023-09-14T09:26:16Z</time>
      </trkpt>
      <trkpt lat="44.48081" lon="1.73545">
        <ele>359.19</ele>
        <time>2023-09-14T09:26:27Z</time>
      </trkpt>
      <trkpt lat="44.48089" lon="1.73556">
        <ele>359.19</ele>
        <time>2023-09-14T09:26:40Z</time>
      </trkpt>
      <trkpt lat="44.48095" lon="1.73569">
        <ele>359.19</ele>
        <time>2023-09-14T09:26:52Z</time>
      </trkpt>
      <trkpt lat="44.48082" lon="1.73573">
        <ele>358.23</ele>
        <time>2023-09-14T09:27:34Z</time>
      </trkpt>
      <trkpt lat="44.4807" lon="1.73568">
        <ele>356.79</ele>
        <time>2023-09-14T09:27:49Z</time>
      </trkpt>
      <trkpt lat="44.48058" lon="1.73566">
        <ele>355.83</ele>
        <time>2023-09-14T09:28:03Z</time>
      </trkpt>
      <trkpt lat="44.48046" lon="1.73561">
        <ele>354.86</ele>
        <time>2023-09-14T09:28:17Z</time>
      </trkpt>
      <trkpt lat="44.48033" lon="1.73554">
        <ele>353.42</ele>
        <time>2023-09-14T09:28:32Z</time>
      </trkpt>
      <trkpt lat="44.48023" lon="1.73545">
        <ele>352.46</ele>
        <time>2023-09-14T09:28:45Z</time>
      </trkpt>
      <trkpt lat="44.48009" lon="1.73541">
        <ele>351.02</ele>
        <time>2023-09-14T09:29:08Z</time>
      </trkpt>
      <trkpt lat="44.47997" lon="1.73543">
        <ele>349.1</ele>
        <time>2023-09-14T09:29:23Z</time>
      </trkpt>
      <trkpt lat="44.47986" lon="1.7355">
        <ele>346.69</ele>
        <time>2023-09-14T09:29:36Z</time>
      </trkpt>
      <trkpt lat="44.47977" lon="1.7356">
        <ele>344.29</ele>
        <time>2023-09-14T09:29:48Z</time>
      </trkpt>
      <trkpt lat="44.47968" lon="1.7357">
        <ele>342.37</ele>
        <time>2023-09-14T09:30:01Z</time>
      </trkpt>
      <trkpt lat="44.47958" lon="1.73579">
        <ele>340.92</ele>
        <time>2023-09-14T09:30:14Z</time>
      </trkpt>
      <trkpt lat="44.4795" lon="1.7359">
        <ele>339</ele>
        <time>2023-09-14T09:30:25Z</time>
      </trkpt>
      <trkpt lat="44.47943" lon="1.73601">
        <ele>337.08</ele>
        <time>2023-09-14T09:30:36Z</time>
      </trkpt>
      <trkpt lat="44.47934" lon="1.73609">
        <ele>336.12</ele>
        <time>2023-09-14T09:30:46Z</time>
      </trkpt>
      <trkpt lat="44.47925" lon="1.7362">
        <ele>334.68</ele>
        <time>2023-09-14T09:30:56Z</time>
      </trkpt>
      <trkpt lat="44.47916" lon="1.7363">
        <ele>333.71</ele>
        <time>2023-09-14T09:31:05Z</time>
      </trkpt>
      <trkpt lat="44.47908" lon="1.7364">
        <ele>332.75</ele>
        <time>2023-09-14T09:31:15Z</time>
      </trkpt>
      <trkpt lat="44.479" lon="1.73652">
        <ele>331.79</ele>
        <time>2023-09-14T09:31:26Z</time>
      </trkpt>
      <trkpt lat="44.4789" lon="1.73659">
        <ele>330.83</ele>
        <time>2023-09-14T09:31:37Z</time>
      </trkpt>
      <trkpt lat="44.4788" lon="1.73669">
        <ele>330.35</ele>
        <time>2023-09-14T09:31:48Z</time>
      </trkpt>
      <trkpt lat="44.4787" lon="1.73678">
        <ele>328.91</ele>
        <time>2023-09-14T09:31:59Z</time>
      </trkpt>
      <trkpt lat="44.47861" lon="1.73689">
        <ele>328.43</ele>
        <time>2023-09-14T09:32:45Z</time>
      </trkpt>
      <trkpt lat="44.4785" lon="1.73696">
        <ele>327.95</ele>
        <time>2023-09-14T09:33:00Z</time>
      </trkpt>
      <trkpt lat="44.47841" lon="1.73705">
        <ele>326.99</ele>
        <time>2023-09-14T09:33:14Z</time>
      </trkpt>
      <trkpt lat="44.47835" lon="1.73717">
        <ele>326.5</ele>
        <time>2023-09-14T09:33:46Z</time>
      </trkpt>
      <trkpt lat="44.47829" lon="1.73731">
        <ele>325.06</ele>
        <time>2023-09-14T09:34:01Z</time>
      </trkpt>
      <trkpt lat="44.47827" lon="1.73747">
        <ele>323.62</ele>
        <time>2023-09-14T09:34:15Z</time>
      </trkpt>
      <trkpt lat="44.4783" lon="1.73764">
        <ele>322.18</ele>
        <time>2023-09-14T09:34:31Z</time>
      </trkpt>
      <trkpt lat="44.47839" lon="1.73774">
        <ele>319.78</ele>
        <time>2023-09-14T09:34:46Z</time>
      </trkpt>
      <trkpt lat="44.47861" lon="1.73767">
        <ele>318.81</ele>
        <time>2023-09-14T09:35:15Z</time>
      </trkpt>
      <trkpt lat="44.47882" lon="1.73761">
        <ele>318.33</ele>
        <time>2023-09-14T09:35:38Z</time>
      </trkpt>
      <trkpt lat="44.4791" lon="1.73751">
        <ele>316.89</ele>
        <time>2023-09-14T09:36:06Z</time>
      </trkpt>
      <trkpt lat="44.47926" lon="1.73748">
        <ele>316.41</ele>
        <time>2023-09-14T09:36:21Z</time>
      </trkpt>
      <trkpt lat="44.4794" lon="1.73742">
        <ele>315.93</ele>
        <time>2023-09-14T09:36:36Z</time>
      </trkpt>
      <trkpt lat="44.47951" lon="1.73736">
        <ele>315.93</ele>
        <time>2023-09-14T09:36:49Z</time>
      </trkpt>
      <trkpt lat="44.47968" lon="1.73734">
        <ele>315.93</ele>
        <time>2023-09-14T09:37:02Z</time>
      </trkpt>
      <trkpt lat="44.47984" lon="1.73738">
        <ele>317.85</ele>
        <time>2023-09-14T09:37:27Z</time>
      </trkpt>
      <trkpt lat="44.47993" lon="1.73748">
        <ele>318.81</ele>
        <time>2023-09-14T09:37:39Z</time>
      </trkpt>
      <trkpt lat="44.48001" lon="1.7376">
        <ele>319.3</ele>
        <time>2023-09-14T09:37:58Z</time>
      </trkpt>
      <trkpt lat="44.4801" lon="1.73772">
        <ele>320.74</ele>
        <time>2023-09-14T09:38:12Z</time>
      </trkpt>
      <trkpt lat="44.48019" lon="1.73784">
        <ele>320.74</ele>
        <time>2023-09-14T09:38:25Z</time>
      </trkpt>
      <trkpt lat="44.48028" lon="1.738">
        <ele>321.22</ele>
        <time>2023-09-14T09:38:39Z</time>
      </trkpt>
      <trkpt lat="44.4804" lon="1.73817">
        <ele>321.7</ele>
        <time>2023-09-14T09:38:54Z</time>
      </trkpt>
      <trkpt lat="44.48057" lon="1.73843">
        <ele>323.62</ele>
        <time>2023-09-14T09:39:29Z</time>
      </trkpt>
      <trkpt lat="44.48064" lon="1.73859">
        <ele>324.1</ele>
        <time>2023-09-14T09:39:41Z</time>
      </trkpt>
      <trkpt lat="44.4807" lon="1.73873">
        <ele>324.58</ele>
        <time>2023-09-14T09:39:53Z</time>
      </trkpt>
      <trkpt lat="44.48077" lon="1.73886">
        <ele>325.06</ele>
        <time>2023-09-14T09:40:04Z</time>
      </trkpt>
      <trkpt lat="44.48086" lon="1.739">
        <ele>326.5</ele>
        <time>2023-09-14T09:40:18Z</time>
      </trkpt>
      <trkpt lat="44.48095" lon="1.73913">
        <ele>327.95</ele>
        <time>2023-09-14T09:40:32Z</time>
      </trkpt>
      <trkpt lat="44.48108" lon="1.73918">
        <ele>329.87</ele>
        <time>2023-09-14T09:40:46Z</time>
      </trkpt>
      <trkpt lat="44.48122" lon="1.73929">
        <ele>331.79</ele>
        <time>2023-09-14T09:41:15Z</time>
      </trkpt>
      <trkpt lat="44.48129" lon="1.73949">
        <ele>333.71</ele>
        <time>2023-09-14T09:42:03Z</time>
      </trkpt>
      <trkpt lat="44.48136" lon="1.7396">
        <ele>335.16</ele>
        <time>2023-09-14T09:42:17Z</time>
      </trkpt>
      <trkpt lat="44.48144" lon="1.7397">
        <ele>337.08</ele>
        <time>2023-09-14T09:42:36Z</time>
      </trkpt>
      <trkpt lat="44.48148" lon="1.73987">
        <ele>338.52</ele>
        <time>2023-09-14T09:43:26Z</time>
      </trkpt>
      <trkpt lat="44.48139" lon="1.73992">
        <ele>334.68</ele>
        <time>2023-09-14T09:43:43Z</time>
      </trkpt>
      <trkpt lat="44.48128" lon="1.73995">
        <ele>331.79</ele>
        <time>2023-09-14T09:43:59Z</time>
      </trkpt>
      <trkpt lat="44.48121" lon="1.73993">
        <ele>329.39</ele>
        <time>2023-09-14T09:47:21Z</time>
      </trkpt>
      <trkpt lat="44.48112" lon="1.73999">
        <ele>328.43</ele>
        <time>2023-09-14T09:48:28Z</time>
      </trkpt>
      <trkpt lat="44.48103" lon="1.74009">
        <ele>325.06</ele>
        <time>2023-09-14T09:48:45Z</time>
      </trkpt>
      <trkpt lat="44.48096" lon="1.74014">
        <ele>323.14</ele>
        <time>2023-09-14T09:49:00Z</time>
      </trkpt>
      <trkpt lat="44.48087" lon="1.74022">
        <ele>319.78</ele>
        <time>2023-09-14T09:49:14Z</time>
      </trkpt>
      <trkpt lat="44.48078" lon="1.74028">
        <ele>317.37</ele>
        <time>2023-09-14T09:49:26Z</time>
      </trkpt>
      <trkpt lat="44.48069" lon="1.74036">
        <ele>314.97</ele>
        <time>2023-09-14T09:49:39Z</time>
      </trkpt>
      <trkpt lat="44.48059" lon="1.74042">
        <ele>312.57</ele>
        <time>2023-09-14T09:49:52Z</time>
      </trkpt>
      <trkpt lat="44.48051" lon="1.74052">
        <ele>310.16</ele>
        <time>2023-09-14T09:50:04Z</time>
      </trkpt>
      <trkpt lat="44.48042" lon="1.74059">
        <ele>307.28</ele>
        <time>2023-09-14T09:50:16Z</time>
      </trkpt>
      <trkpt lat="44.48033" lon="1.74062">
        <ele>304.39</ele>
        <time>2023-09-14T09:50:27Z</time>
      </trkpt>
      <trkpt lat="44.48023" lon="1.74067">
        <ele>301.99</ele>
        <time>2023-09-14T09:50:38Z</time>
      </trkpt>
      <trkpt lat="44.48014" lon="1.74069">
        <ele>299.59</ele>
        <time>2023-09-14T09:50:47Z</time>
      </trkpt>
      <trkpt lat="44.48005" lon="1.74073">
        <ele>296.7</ele>
        <time>2023-09-14T09:50:55Z</time>
      </trkpt>
      <trkpt lat="44.47996" lon="1.74081">
        <ele>294.3</ele>
        <time>2023-09-14T09:51:05Z</time>
      </trkpt>
      <trkpt lat="44.47993" lon="1.74094">
        <ele>291.9</ele>
        <time>2023-09-14T09:51:16Z</time>
      </trkpt>
      <trkpt lat="44.47984" lon="1.74101">
        <ele>289.97</ele>
        <time>2023-09-14T09:51:29Z</time>
      </trkpt>
      <trkpt lat="44.47971" lon="1.74098">
        <ele>287.09</ele>
        <time>2023-09-14T09:51:55Z</time>
      </trkpt>
      <trkpt lat="44.47974" lon="1.7411">
        <ele>286.13</ele>
        <time>2023-09-14T09:52:10Z</time>
      </trkpt>
      <trkpt lat="44.47983" lon="1.74119">
        <ele>286.13</ele>
        <time>2023-09-14T09:52:22Z</time>
      </trkpt>
      <trkpt lat="44.47992" lon="1.74129">
        <ele>287.57</ele>
        <time>2023-09-14T09:52:34Z</time>
      </trkpt>
      <trkpt lat="44.48001" lon="1.7414">
        <ele>288.05</ele>
        <time>2023-09-14T09:52:45Z</time>
      </trkpt>
      <trkpt lat="44.48009" lon="1.74151">
        <ele>288.53</ele>
        <time>2023-09-14T09:52:56Z</time>
      </trkpt>
      <trkpt lat="44.48018" lon="1.74163">
        <ele>289.49</ele>
        <time>2023-09-14T09:53:07Z</time>
      </trkpt>
      <trkpt lat="44.48023" lon="1.74176">
        <ele>289.97</ele>
        <time>2023-09-14T09:53:19Z</time>
      </trkpt>
      <trkpt lat="44.48032" lon="1.74187">
        <ele>290.46</ele>
        <time>2023-09-14T09:53:31Z</time>
      </trkpt>
      <trkpt lat="44.4804" lon="1.74199">
        <ele>290.94</ele>
        <time>2023-09-14T09:53:41Z</time>
      </trkpt>
      <trkpt lat="44.48046" lon="1.74212">
        <ele>291.9</ele>
        <time>2023-09-14T09:53:51Z</time>
      </trkpt>
      <trkpt lat="44.48052" lon="1.74226">
        <ele>292.38</ele>
        <time>2023-09-14T09:54:02Z</time>
      </trkpt>
      <trkpt lat="44.48056" lon="1.74239">
        <ele>292.86</ele>
        <time>2023-09-14T09:54:12Z</time>
      </trkpt>
      <trkpt lat="44.48062" lon="1.74253">
        <ele>293.34</ele>
        <time>2023-09-14T09:54:22Z</time>
      </trkpt>
      <trkpt lat="44.48067" lon="1.74267">
        <ele>293.82</ele>
        <time>2023-09-14T09:54:32Z</time>
      </trkpt>
      <trkpt lat="44.48073" lon="1.74282">
        <ele>294.3</ele>
        <time>2023-09-14T09:54:42Z</time>
      </trkpt>
      <trkpt lat="44.48076" lon="1.74296">
        <ele>294.78</ele>
        <time>2023-09-14T09:54:52Z</time>
      </trkpt>
      <trkpt lat="44.48078" lon="1.7431">
        <ele>295.26</ele>
        <time>2023-09-14T09:55:01Z</time>
      </trkpt>
      <trkpt lat="44.4808" lon="1.74325">
        <ele>295.74</ele>
        <time>2023-09-14T09:55:12Z</time>
      </trkpt>
      <trkpt lat="44.48081" lon="1.74342">
        <ele>296.22</ele>
        <time>2023-09-14T09:55:22Z</time>
      </trkpt>
      <trkpt lat="44.48082" lon="1.74357">
        <ele>297.18</ele>
        <time>2023-09-14T09:55:32Z</time>
      </trkpt>
      <trkpt lat="44.48085" lon="1.74373">
        <ele>298.15</ele>
        <time>2023-09-14T09:55:42Z</time>
      </trkpt>
      <trkpt lat="44.48086" lon="1.74389">
        <ele>299.11</ele>
        <time>2023-09-14T09:55:59Z</time>
      </trkpt>
      <trkpt lat="44.48086" lon="1.74405">
        <ele>299.59</ele>
        <time>2023-09-14T09:56:09Z</time>
      </trkpt>
      <trkpt lat="44.48086" lon="1.74419">
        <ele>300.07</ele>
        <time>2023-09-14T09:56:18Z</time>
      </trkpt>
      <trkpt lat="44.48082" lon="1.74433">
        <ele>301.03</ele>
        <time>2023-09-14T09:56:27Z</time>
      </trkpt>
      <trkpt lat="44.48074" lon="1.74445">
        <ele>301.51</ele>
        <time>2023-09-14T09:56:37Z</time>
      </trkpt>
      <trkpt lat="44.48064" lon="1.74452">
        <ele>301.99</ele>
        <time>2023-09-14T09:56:47Z</time>
      </trkpt>
      <trkpt lat="44.48051" lon="1.74454">
        <ele>302.95</ele>
        <time>2023-09-14T09:56:59Z</time>
      </trkpt>
      <trkpt lat="44.48038" lon="1.74453">
        <ele>303.43</ele>
        <time>2023-09-14T09:57:10Z</time>
      </trkpt>
      <trkpt lat="44.48024" lon="1.74452">
        <ele>303.91</ele>
        <time>2023-09-14T09:57:21Z</time>
      </trkpt>
      <trkpt lat="44.48013" lon="1.74453">
        <ele>304.39</ele>
        <time>2023-09-14T09:57:31Z</time>
      </trkpt>
      <trkpt lat="44.48002" lon="1.74456">
        <ele>304.88</ele>
        <time>2023-09-14T09:57:48Z</time>
      </trkpt>
      <trkpt lat="44.47991" lon="1.74456">
        <ele>305.84</ele>
        <time>2023-09-14T09:57:59Z</time>
      </trkpt>
      <trkpt lat="44.47978" lon="1.74455">
        <ele>306.32</ele>
        <time>2023-09-14T09:58:09Z</time>
      </trkpt>
      <trkpt lat="44.47966" lon="1.74452">
        <ele>306.8</ele>
        <time>2023-09-14T09:58:19Z</time>
      </trkpt>
      <trkpt lat="44.47956" lon="1.7445">
        <ele>307.76</ele>
        <time>2023-09-14T09:58:28Z</time>
      </trkpt>
      <trkpt lat="44.47946" lon="1.74448">
        <ele>308.24</ele>
        <time>2023-09-14T09:58:38Z</time>
      </trkpt>
      <trkpt lat="44.47935" lon="1.74446">
        <ele>308.72</ele>
        <time>2023-09-14T09:58:48Z</time>
      </trkpt>
      <trkpt lat="44.47924" lon="1.74443">
        <ele>309.68</ele>
        <time>2023-09-14T09:58:58Z</time>
      </trkpt>
      <trkpt lat="44.47912" lon="1.74442">
        <ele>310.16</ele>
        <time>2023-09-14T09:59:09Z</time>
      </trkpt>
      <trkpt lat="44.47901" lon="1.7444">
        <ele>311.12</ele>
        <time>2023-09-14T09:59:19Z</time>
      </trkpt>
      <trkpt lat="44.47889" lon="1.7444">
        <ele>311.12</ele>
        <time>2023-09-14T09:59:29Z</time>
      </trkpt>
      <trkpt lat="44.47878" lon="1.74436">
        <ele>312.09</ele>
        <time>2023-09-14T09:59:42Z</time>
      </trkpt>
      <trkpt lat="44.47868" lon="1.74437">
        <ele>312.57</ele>
        <time>2023-09-14T09:59:52Z</time>
      </trkpt>
      <trkpt lat="44.47858" lon="1.74439">
        <ele>313.05</ele>
        <time>2023-09-14T10:00:04Z</time>
      </trkpt>
      <trkpt lat="44.47848" lon="1.7444">
        <ele>314.01</ele>
        <time>2023-09-14T10:00:15Z</time>
      </trkpt>
      <trkpt lat="44.47836" lon="1.7444">
        <ele>314.49</ele>
        <time>2023-09-14T10:00:26Z</time>
      </trkpt>
      <trkpt lat="44.47826" lon="1.74441">
        <ele>314.97</ele>
        <time>2023-09-14T10:00:36Z</time>
      </trkpt>
      <trkpt lat="44.47815" lon="1.74442">
        <ele>315.93</ele>
        <time>2023-09-14T10:00:47Z</time>
      </trkpt>
      <trkpt lat="44.47803" lon="1.74445">
        <ele>316.41</ele>
        <time>2023-09-14T10:00:57Z</time>
      </trkpt>
      <trkpt lat="44.47793" lon="1.74449">
        <ele>317.37</ele>
        <time>2023-09-14T10:01:08Z</time>
      </trkpt>
      <trkpt lat="44.47783" lon="1.74455">
        <ele>318.33</ele>
        <time>2023-09-14T10:01:19Z</time>
      </trkpt>
      <trkpt lat="44.47773" lon="1.74461">
        <ele>318.81</ele>
        <time>2023-09-14T10:01:30Z</time>
      </trkpt>
      <trkpt lat="44.47764" lon="1.74469">
        <ele>319.78</ele>
        <time>2023-09-14T10:01:51Z</time>
      </trkpt>
      <trkpt lat="44.47755" lon="1.74479">
        <ele>321.22</ele>
        <time>2023-09-14T10:02:03Z</time>
      </trkpt>
      <trkpt lat="44.47746" lon="1.7449">
        <ele>322.18</ele>
        <time>2023-09-14T10:02:14Z</time>
      </trkpt>
      <trkpt lat="44.4774" lon="1.74502">
        <ele>324.1</ele>
        <time>2023-09-14T10:02:25Z</time>
      </trkpt>
      <trkpt lat="44.47736" lon="1.74515">
        <ele>324.58</ele>
        <time>2023-09-14T10:02:36Z</time>
      </trkpt>
      <trkpt lat="44.4773" lon="1.74529">
        <ele>326.02</ele>
        <time>2023-09-14T10:02:48Z</time>
      </trkpt>
      <trkpt lat="44.47726" lon="1.74545">
        <ele>326.99</ele>
        <time>2023-09-14T10:03:01Z</time>
      </trkpt>
      <trkpt lat="44.47726" lon="1.7456">
        <ele>327.95</ele>
        <time>2023-09-14T10:03:14Z</time>
      </trkpt>
      <trkpt lat="44.47724" lon="1.74575">
        <ele>328.91</ele>
        <time>2023-09-14T10:03:26Z</time>
      </trkpt>
      <trkpt lat="44.47723" lon="1.74595">
        <ele>329.87</ele>
        <time>2023-09-14T10:03:39Z</time>
      </trkpt>
      <trkpt lat="44.47722" lon="1.74609">
        <ele>330.35</ele>
        <time>2023-09-14T10:03:50Z</time>
      </trkpt>
      <trkpt lat="44.47723" lon="1.74625">
        <ele>330.83</ele>
        <time>2023-09-14T10:04:01Z</time>
      </trkpt>
      <trkpt lat="44.47722" lon="1.7464">
        <ele>330.83</ele>
        <time>2023-09-14T10:04:12Z</time>
      </trkpt>
      <trkpt lat="44.47719" lon="1.74657">
        <ele>329.39</ele>
        <time>2023-09-14T10:08:16Z</time>
      </trkpt>
      <trkpt lat="44.47725" lon="1.74672">
        <ele>329.39</ele>
        <time>2023-09-14T10:09:12Z</time>
      </trkpt>
      <trkpt lat="44.47731" lon="1.74685">
        <ele>328.43</ele>
        <time>2023-09-14T10:09:22Z</time>
      </trkpt>
      <trkpt lat="44.47734" lon="1.74699">
        <ele>327.47</ele>
        <time>2023-09-14T10:09:31Z</time>
      </trkpt>
      <trkpt lat="44.47737" lon="1.74712">
        <ele>326.5</ele>
        <time>2023-09-14T10:09:40Z</time>
      </trkpt>
      <trkpt lat="44.4774" lon="1.74727">
        <ele>326.02</ele>
        <time>2023-09-14T10:09:50Z</time>
      </trkpt>
      <trkpt lat="44.47743" lon="1.74742">
        <ele>325.06</ele>
        <time>2023-09-14T10:09:59Z</time>
      </trkpt>
      <trkpt lat="44.47746" lon="1.74759">
        <ele>324.58</ele>
        <time>2023-09-14T10:10:09Z</time>
      </trkpt>
      <trkpt lat="44.47748" lon="1.74773">
        <ele>324.58</ele>
        <time>2023-09-14T10:10:18Z</time>
      </trkpt>
      <trkpt lat="44.4775" lon="1.74791">
        <ele>324.1</ele>
        <time>2023-09-14T10:10:28Z</time>
      </trkpt>
      <trkpt lat="44.47751" lon="1.74809">
        <ele>324.1</ele>
        <time>2023-09-14T10:10:38Z</time>
      </trkpt>
      <trkpt lat="44.47751" lon="1.74826">
        <ele>324.1</ele>
        <time>2023-09-14T10:10:48Z</time>
      </trkpt>
      <trkpt lat="44.47751" lon="1.74843">
        <ele>324.1</ele>
        <time>2023-09-14T10:10:57Z</time>
      </trkpt>
      <trkpt lat="44.4775" lon="1.74859">
        <ele>325.06</ele>
        <time>2023-09-14T10:11:06Z</time>
      </trkpt>
      <trkpt lat="44.4775" lon="1.74875">
        <ele>325.54</ele>
        <time>2023-09-14T10:11:15Z</time>
      </trkpt>
      <trkpt lat="44.4775" lon="1.74891">
        <ele>326.5</ele>
        <time>2023-09-14T10:11:23Z</time>
      </trkpt>
      <trkpt lat="44.4775" lon="1.74905">
        <ele>326.5</ele>
        <time>2023-09-14T10:11:32Z</time>
      </trkpt>
      <trkpt lat="44.4775" lon="1.74921">
        <ele>326.99</ele>
        <time>2023-09-14T10:11:41Z</time>
      </trkpt>
      <trkpt lat="44.47751" lon="1.74939">
        <ele>326.99</ele>
        <time>2023-09-14T10:11:50Z</time>
      </trkpt>
      <trkpt lat="44.47751" lon="1.74955">
        <ele>327.47</ele>
        <time>2023-09-14T10:11:59Z</time>
      </trkpt>
      <trkpt lat="44.47751" lon="1.74969">
        <ele>327.47</ele>
        <time>2023-09-14T10:12:07Z</time>
      </trkpt>
      <trkpt lat="44.47752" lon="1.74985">
        <ele>327.47</ele>
        <time>2023-09-14T10:12:16Z</time>
      </trkpt>
      <trkpt lat="44.47751" lon="1.75003">
        <ele>327.95</ele>
        <time>2023-09-14T10:12:26Z</time>
      </trkpt>
      <trkpt lat="44.47753" lon="1.75019">
        <ele>327.95</ele>
        <time>2023-09-14T10:12:35Z</time>
      </trkpt>
      <trkpt lat="44.47755" lon="1.75036">
        <ele>328.43</ele>
        <time>2023-09-14T10:12:44Z</time>
      </trkpt>
      <trkpt lat="44.47758" lon="1.75051">
        <ele>328.91</ele>
        <time>2023-09-14T10:12:52Z</time>
      </trkpt>
      <trkpt lat="44.47762" lon="1.75066">
        <ele>328.91</ele>
        <time>2023-09-14T10:13:01Z</time>
      </trkpt>
      <trkpt lat="44.47767" lon="1.7508">
        <ele>328.91</ele>
        <time>2023-09-14T10:13:09Z</time>
      </trkpt>
      <trkpt lat="44.47771" lon="1.75093">
        <ele>329.39</ele>
        <time>2023-09-14T10:13:17Z</time>
      </trkpt>
      <trkpt lat="44.47776" lon="1.75106">
        <ele>329.87</ele>
        <time>2023-09-14T10:13:25Z</time>
      </trkpt>
      <trkpt lat="44.4778" lon="1.7512">
        <ele>329.87</ele>
        <time>2023-09-14T10:13:33Z</time>
      </trkpt>
      <trkpt lat="44.47785" lon="1.75133">
        <ele>329.87</ele>
        <time>2023-09-14T10:13:41Z</time>
      </trkpt>
      <trkpt lat="44.47788" lon="1.75148">
        <ele>329.87</ele>
        <time>2023-09-14T10:13:49Z</time>
      </trkpt>
      <trkpt lat="44.47789" lon="1.75162">
        <ele>329.87</ele>
        <time>2023-09-14T10:13:57Z</time>
      </trkpt>
      <trkpt lat="44.47789" lon="1.75177">
        <ele>329.87</ele>
        <time>2023-09-14T10:14:06Z</time>
      </trkpt>
      <trkpt lat="44.47786" lon="1.75191">
        <ele>329.87</ele>
        <time>2023-09-14T10:14:15Z</time>
      </trkpt>
      <trkpt lat="44.47783" lon="1.75206">
        <ele>329.87</ele>
        <time>2023-09-14T10:14:24Z</time>
      </trkpt>
      <trkpt lat="44.47779" lon="1.7522">
        <ele>327.95</ele>
        <time>2023-09-14T10:14:34Z</time>
      </trkpt>
      <trkpt lat="44.47773" lon="1.75234">
        <ele>327.47</ele>
        <time>2023-09-14T10:14:44Z</time>
      </trkpt>
      <trkpt lat="44.47766" lon="1.75246">
        <ele>326.02</ele>
        <time>2023-09-14T10:14:55Z</time>
      </trkpt>
      <trkpt lat="44.47757" lon="1.75259">
        <ele>324.58</ele>
        <time>2023-09-14T10:15:05Z</time>
      </trkpt>
      <trkpt lat="44.47747" lon="1.7527">
        <ele>323.62</ele>
        <time>2023-09-14T10:15:15Z</time>
      </trkpt>
      <trkpt lat="44.47737" lon="1.7528">
        <ele>322.66</ele>
        <time>2023-09-14T10:15:25Z</time>
      </trkpt>
      <trkpt lat="44.47728" lon="1.7529">
        <ele>322.18</ele>
        <time>2023-09-14T10:15:33Z</time>
      </trkpt>
      <trkpt lat="44.47718" lon="1.75297">
        <ele>321.7</ele>
        <time>2023-09-14T10:15:42Z</time>
      </trkpt>
      <trkpt lat="44.47709" lon="1.75305">
        <ele>321.22</ele>
        <time>2023-09-14T10:15:50Z</time>
      </trkpt>
      <trkpt lat="44.47701" lon="1.75311">
        <ele>320.26</ele>
        <time>2023-09-14T10:15:58Z</time>
      </trkpt>
      <trkpt lat="44.47691" lon="1.75317">
        <ele>319.78</ele>
        <time>2023-09-14T10:16:07Z</time>
      </trkpt>
      <trkpt lat="44.47682" lon="1.75323">
        <ele>319.78</ele>
        <time>2023-09-14T10:16:15Z</time>
      </trkpt>
      <trkpt lat="44.47673" lon="1.75329">
        <ele>319.3</ele>
        <time>2023-09-14T10:16:23Z</time>
      </trkpt>
      <trkpt lat="44.47664" lon="1.75335">
        <ele>319.3</ele>
        <time>2023-09-14T10:16:31Z</time>
      </trkpt>
      <trkpt lat="44.47655" lon="1.7534">
        <ele>318.33</ele>
        <time>2023-09-14T10:16:40Z</time>
      </trkpt>
      <trkpt lat="44.47646" lon="1.75347">
        <ele>318.33</ele>
        <time>2023-09-14T10:16:49Z</time>
      </trkpt>
      <trkpt lat="44.47636" lon="1.75353">
        <ele>317.37</ele>
        <time>2023-09-14T10:17:00Z</time>
      </trkpt>
      <trkpt lat="44.47626" lon="1.75358">
        <ele>317.37</ele>
        <time>2023-09-14T10:17:08Z</time>
      </trkpt>
      <trkpt lat="44.47616" lon="1.75363">
        <ele>317.37</ele>
        <time>2023-09-14T10:17:16Z</time>
      </trkpt>
      <trkpt lat="44.47607" lon="1.75366">
        <ele>316.89</ele>
        <time>2023-09-14T10:17:24Z</time>
      </trkpt>
      <trkpt lat="44.47599" lon="1.7537">
        <ele>316.41</ele>
        <time>2023-09-14T10:17:32Z</time>
      </trkpt>
      <trkpt lat="44.47589" lon="1.75376">
        <ele>316.41</ele>
        <time>2023-09-14T10:17:40Z</time>
      </trkpt>
      <trkpt lat="44.4758" lon="1.75381">
        <ele>315.93</ele>
        <time>2023-09-14T10:17:51Z</time>
      </trkpt>
      <trkpt lat="44.47571" lon="1.75384">
        <ele>315.45</ele>
        <time>2023-09-14T10:17:59Z</time>
      </trkpt>
      <trkpt lat="44.4756" lon="1.75386">
        <ele>315.45</ele>
        <time>2023-09-14T10:18:08Z</time>
      </trkpt>
      <trkpt lat="44.4755" lon="1.75387">
        <ele>315.45</ele>
        <time>2023-09-14T10:18:17Z</time>
      </trkpt>
      <trkpt lat="44.4754" lon="1.75391">
        <ele>315.45</ele>
        <time>2023-09-14T10:18:27Z</time>
      </trkpt>
      <trkpt lat="44.4753" lon="1.75386">
        <ele>315.45</ele>
        <time>2023-09-14T10:18:36Z</time>
      </trkpt>
      <trkpt lat="44.47518" lon="1.75384">
        <ele>315.45</ele>
        <time>2023-09-14T10:18:45Z</time>
      </trkpt>
      <trkpt lat="44.47508" lon="1.75381">
        <ele>315.45</ele>
        <time>2023-09-14T10:18:54Z</time>
      </trkpt>
      <trkpt lat="44.47495" lon="1.75377">
        <ele>314.97</ele>
        <time>2023-09-14T10:19:05Z</time>
      </trkpt>
      <trkpt lat="44.47484" lon="1.75373">
        <ele>314.97</ele>
        <time>2023-09-14T10:19:14Z</time>
      </trkpt>
      <trkpt lat="44.47473" lon="1.7537">
        <ele>314.97</ele>
        <time>2023-09-14T10:19:23Z</time>
      </trkpt>
      <trkpt lat="44.47463" lon="1.75366">
        <ele>314.97</ele>
        <time>2023-09-14T10:19:34Z</time>
      </trkpt>
      <trkpt lat="44.47448" lon="1.75357">
        <ele>314.97</ele>
        <time>2023-09-14T10:20:19Z</time>
      </trkpt>
      <trkpt lat="44.47437" lon="1.75347">
        <ele>314.97</ele>
        <time>2023-09-14T10:22:02Z</time>
      </trkpt>
      <trkpt lat="44.47425" lon="1.75342">
        <ele>314.97</ele>
        <time>2023-09-14T10:22:15Z</time>
      </trkpt>
      <trkpt lat="44.4741" lon="1.75336">
        <ele>314.97</ele>
        <time>2023-09-14T10:22:29Z</time>
      </trkpt>
      <trkpt lat="44.47398" lon="1.75331">
        <ele>314.97</ele>
        <time>2023-09-14T10:22:40Z</time>
      </trkpt>
      <trkpt lat="44.47386" lon="1.75325">
        <ele>314.49</ele>
        <time>2023-09-14T10:22:51Z</time>
      </trkpt>
      <trkpt lat="44.47374" lon="1.75319">
        <ele>314.49</ele>
        <time>2023-09-14T10:23:02Z</time>
      </trkpt>
      <trkpt lat="44.47361" lon="1.75316">
        <ele>314.49</ele>
        <time>2023-09-14T10:23:12Z</time>
      </trkpt>
      <trkpt lat="44.4735" lon="1.7531">
        <ele>314.49</ele>
        <time>2023-09-14T10:23:21Z</time>
      </trkpt>
      <trkpt lat="44.47338" lon="1.75307">
        <ele>314.49</ele>
        <time>2023-09-14T10:23:31Z</time>
      </trkpt>
      <trkpt lat="44.47325" lon="1.75303">
        <ele>314.01</ele>
        <time>2023-09-14T10:23:43Z</time>
      </trkpt>
      <trkpt lat="44.47312" lon="1.753">
        <ele>313.53</ele>
        <time>2023-09-14T10:23:54Z</time>
      </trkpt>
      <trkpt lat="44.47298" lon="1.75295">
        <ele>313.05</ele>
        <time>2023-09-14T10:24:05Z</time>
      </trkpt>
      <trkpt lat="44.47286" lon="1.75291">
        <ele>312.09</ele>
        <time>2023-09-14T10:24:17Z</time>
      </trkpt>
      <trkpt lat="44.47275" lon="1.75285">
        <ele>311.6</ele>
        <time>2023-09-14T10:24:34Z</time>
      </trkpt>
      <trkpt lat="44.47261" lon="1.75282">
        <ele>310.16</ele>
        <time>2023-09-14T10:24:48Z</time>
      </trkpt>
      <trkpt lat="44.47246" lon="1.75276">
        <ele>308.24</ele>
        <time>2023-09-14T10:25:05Z</time>
      </trkpt>
      <trkpt lat="44.47228" lon="1.7527">
        <ele>306.32</ele>
        <time>2023-09-14T10:25:22Z</time>
      </trkpt>
      <trkpt lat="44.47226" lon="1.75255">
        <ele>306.32</ele>
        <time>2023-09-14T10:25:33Z</time>
      </trkpt>
      <trkpt lat="44.47227" lon="1.7524">
        <ele>306.32</ele>
        <time>2023-09-14T10:25:42Z</time>
      </trkpt>
      <trkpt lat="44.47221" lon="1.7522">
        <ele>305.36</ele>
        <time>2023-09-14T10:26:07Z</time>
      </trkpt>
      <trkpt lat="44.4722" lon="1.75202">
        <ele>304.88</ele>
        <time>2023-09-14T10:26:55Z</time>
      </trkpt>
      <trkpt lat="44.47223" lon="1.75189">
        <ele>304.88</ele>
        <time>2023-09-14T10:27:04Z</time>
      </trkpt>
      <trkpt lat="44.4722" lon="1.75176">
        <ele>304.39</ele>
        <time>2023-09-14T10:27:16Z</time>
      </trkpt>
      <trkpt lat="44.47223" lon="1.75162">
        <ele>304.39</ele>
        <time>2023-09-14T10:28:20Z</time>
      </trkpt>
      <trkpt lat="44.47222" lon="1.75145">
        <ele>303.91</ele>
        <time>2023-09-14T10:28:38Z</time>
      </trkpt>
      <trkpt lat="44.47221" lon="1.7513">
        <ele>302.95</ele>
        <time>2023-09-14T10:28:49Z</time>
      </trkpt>
      <trkpt lat="44.47219" lon="1.75113">
        <ele>302.47</ele>
        <time>2023-09-14T10:29:03Z</time>
      </trkpt>
      <trkpt lat="44.47218" lon="1.75099">
        <ele>301.51</ele>
        <time>2023-09-14T10:29:14Z</time>
      </trkpt>
      <trkpt lat="44.47212" lon="1.75085">
        <ele>300.07</ele>
        <time>2023-09-14T10:29:26Z</time>
      </trkpt>
      <trkpt lat="44.47204" lon="1.75074">
        <ele>299.11</ele>
        <time>2023-09-14T10:30:09Z</time>
      </trkpt>
      <trkpt lat="44.47195" lon="1.75067">
        <ele>299.11</ele>
        <time>2023-09-14T10:30:20Z</time>
      </trkpt>
      <trkpt lat="44.47188" lon="1.75056">
        <ele>298.15</ele>
        <time>2023-09-14T10:30:32Z</time>
      </trkpt>
      <trkpt lat="44.47182" lon="1.75042">
        <ele>297.18</ele>
        <time>2023-09-14T10:30:45Z</time>
      </trkpt>
      <trkpt lat="44.47173" lon="1.75034">
        <ele>295.26</ele>
        <time>2023-09-14T10:30:58Z</time>
      </trkpt>
      <trkpt lat="44.47168" lon="1.75028">
        <ele>293.82</ele>
        <time>2023-09-14T10:31:27Z</time>
      </trkpt>
      <trkpt lat="44.47181" lon="1.75017">
        <ele>295.26</ele>
        <time>2023-09-14T10:32:11Z</time>
      </trkpt>
      <trkpt lat="44.47177" lon="1.74999">
        <ele>292.86</ele>
        <time>2023-09-14T10:32:27Z</time>
      </trkpt>
      <trkpt lat="44.47175" lon="1.74985">
        <ele>291.9</ele>
        <time>2023-09-14T10:32:39Z</time>
      </trkpt>
      <trkpt lat="44.47174" lon="1.74965">
        <ele>289.97</ele>
        <time>2023-09-14T10:32:55Z</time>
      </trkpt>
      <trkpt lat="44.47174" lon="1.74951">
        <ele>289.49</ele>
        <time>2023-09-14T10:33:04Z</time>
      </trkpt>
      <trkpt lat="44.47176" lon="1.74935">
        <ele>289.01</ele>
        <time>2023-09-14T10:33:16Z</time>
      </trkpt>
      <trkpt lat="44.47182" lon="1.74924">
        <ele>288.53</ele>
        <time>2023-09-14T10:33:28Z</time>
      </trkpt>
      <trkpt lat="44.47182" lon="1.7491">
        <ele>289.49</ele>
        <time>2023-09-14T10:33:42Z</time>
      </trkpt>
      <trkpt lat="44.47177" lon="1.74895">
        <ele>288.05</ele>
        <time>2023-09-14T10:33:52Z</time>
      </trkpt>
      <trkpt lat="44.47172" lon="1.74879">
        <ele>286.13</ele>
        <time>2023-09-14T10:34:05Z</time>
      </trkpt>
      <trkpt lat="44.47168" lon="1.74864">
        <ele>285.65</ele>
        <time>2023-09-14T10:34:20Z</time>
      </trkpt>
      <trkpt lat="44.47158" lon="1.74849">
        <ele>283.73</ele>
        <time>2023-09-14T10:34:36Z</time>
      </trkpt>
      <trkpt lat="44.47151" lon="1.74835">
        <ele>283.25</ele>
        <time>2023-09-14T10:34:47Z</time>
      </trkpt>
      <trkpt lat="44.47139" lon="1.74827">
        <ele>282.77</ele>
        <time>2023-09-14T10:35:02Z</time>
      </trkpt>
      <trkpt lat="44.47131" lon="1.74817">
        <ele>282.77</ele>
        <time>2023-09-14T10:35:14Z</time>
      </trkpt>
      <trkpt lat="44.47121" lon="1.74805">
        <ele>283.73</ele>
        <time>2023-09-14T10:35:27Z</time>
      </trkpt>
      <trkpt lat="44.47111" lon="1.74793">
        <ele>285.17</ele>
        <time>2023-09-14T10:35:44Z</time>
      </trkpt>
      <trkpt lat="44.47103" lon="1.74782">
        <ele>286.13</ele>
        <time>2023-09-14T10:35:54Z</time>
      </trkpt>
      <trkpt lat="44.47097" lon="1.74769">
        <ele>287.57</ele>
        <time>2023-09-14T10:36:06Z</time>
      </trkpt>
      <trkpt lat="44.47091" lon="1.74758">
        <ele>289.01</ele>
        <time>2023-09-14T10:36:24Z</time>
      </trkpt>
      <trkpt lat="44.47085" lon="1.74741">
        <ele>289.49</ele>
        <time>2023-09-14T10:36:43Z</time>
      </trkpt>
      <trkpt lat="44.47078" lon="1.74729">
        <ele>289.49</ele>
        <time>2023-09-14T10:36:54Z</time>
      </trkpt>
      <trkpt lat="44.4707" lon="1.74722">
        <ele>289.49</ele>
        <time>2023-09-14T10:37:05Z</time>
      </trkpt>
      <trkpt lat="44.47064" lon="1.74715">
        <ele>287.57</ele>
        <time>2023-09-14T10:37:55Z</time>
      </trkpt>
      <trkpt lat="44.47059" lon="1.74701">
        <ele>287.57</ele>
        <time>2023-09-14T10:38:07Z</time>
      </trkpt>
      <trkpt lat="44.47056" lon="1.74686">
        <ele>286.61</ele>
        <time>2023-09-14T10:38:17Z</time>
      </trkpt>
      <trkpt lat="44.47049" lon="1.74673">
        <ele>284.69</ele>
        <time>2023-09-14T10:38:28Z</time>
      </trkpt>
      <trkpt lat="44.47041" lon="1.7466">
        <ele>281.8</ele>
        <time>2023-09-14T10:38:39Z</time>
      </trkpt>
      <trkpt lat="44.47032" lon="1.74651">
        <ele>279.88</ele>
        <time>2023-09-14T10:38:52Z</time>
      </trkpt>
      <trkpt lat="44.47023" lon="1.7464">
        <ele>277</ele>
        <time>2023-09-14T10:39:04Z</time>
      </trkpt>
      <trkpt lat="44.47018" lon="1.74631">
        <ele>275.07</ele>
        <time>2023-09-14T10:39:32Z</time>
      </trkpt>
      <trkpt lat="44.47014" lon="1.74617">
        <ele>271.71</ele>
        <time>2023-09-14T10:39:47Z</time>
      </trkpt>
      <trkpt lat="44.47007" lon="1.74604">
        <ele>267.38</ele>
        <time>2023-09-14T10:40:08Z</time>
      </trkpt>
      <trkpt lat="44.46998" lon="1.74601">
        <ele>264.02</ele>
        <time>2023-09-14T10:40:24Z</time>
      </trkpt>
      <trkpt lat="44.46986" lon="1.74598">
        <ele>261.14</ele>
        <time>2023-09-14T10:40:45Z</time>
      </trkpt>
      <trkpt lat="44.46979" lon="1.74587">
        <ele>257.29</ele>
        <time>2023-09-14T10:41:02Z</time>
      </trkpt>
      <trkpt lat="44.46976" lon="1.74574">
        <ele>254.89</ele>
        <time>2023-09-14T10:41:16Z</time>
      </trkpt>
      <trkpt lat="44.46968" lon="1.74559">
        <ele>250.56</ele>
        <time>2023-09-14T10:41:34Z</time>
      </trkpt>
      <trkpt lat="44.46959" lon="1.7455">
        <ele>245.27</ele>
        <time>2023-09-14T10:42:04Z</time>
      </trkpt>
      <trkpt lat="44.46945" lon="1.74537">
        <ele>239.02</ele>
        <time>2023-09-14T10:42:36Z</time>
      </trkpt>
      <trkpt lat="44.46937" lon="1.74521">
        <ele>234.22</ele>
        <time>2023-09-14T10:43:02Z</time>
      </trkpt>
      <trkpt lat="44.46928" lon="1.74514">
        <ele>230.37</ele>
        <time>2023-09-14T10:43:18Z</time>
      </trkpt>
      <trkpt lat="44.46918" lon="1.74516">
        <ele>227.01</ele>
        <time>2023-09-14T10:43:34Z</time>
      </trkpt>
      <trkpt lat="44.46919" lon="1.74497">
        <ele>224.61</ele>
        <time>2023-09-14T10:43:58Z</time>
      </trkpt>
      <trkpt lat="44.46901" lon="1.74486">
        <ele>217.88</ele>
        <time>2023-09-14T10:44:43Z</time>
      </trkpt>
      <trkpt lat="44.46891" lon="1.74489">
        <ele>214.99</ele>
        <time>2023-09-14T10:45:05Z</time>
      </trkpt>
      <trkpt lat="44.46885" lon="1.74478">
        <ele>213.07</ele>
        <time>2023-09-14T10:45:23Z</time>
      </trkpt>
      <trkpt lat="44.46875" lon="1.74472">
        <ele>210.67</ele>
        <time>2023-09-14T10:45:31Z</time>
      </trkpt>
      <trkpt lat="44.46865" lon="1.7447">
        <ele>208.74</ele>
        <time>2023-09-14T10:45:40Z</time>
      </trkpt>
      <trkpt lat="44.46858" lon="1.74472">
        <ele>207.3</ele>
        <time>2023-09-14T10:45:52Z</time>
      </trkpt>
      <trkpt lat="44.46851" lon="1.74463">
        <ele>206.34</ele>
        <time>2023-09-14T10:46:07Z</time>
      </trkpt>
      <trkpt lat="44.46841" lon="1.74458">
        <ele>204.42</ele>
        <time>2023-09-14T10:46:15Z</time>
      </trkpt>
      <trkpt lat="44.46832" lon="1.74449">
        <ele>202.98</ele>
        <time>2023-09-14T10:46:23Z</time>
      </trkpt>
      <trkpt lat="44.46822" lon="1.74441">
        <ele>202.49</ele>
        <time>2023-09-14T10:46:31Z</time>
      </trkpt>
      <trkpt lat="44.46813" lon="1.74432">
        <ele>202.01</ele>
        <time>2023-09-14T10:46:38Z</time>
      </trkpt>
      <trkpt lat="44.46804" lon="1.74424">
        <ele>202.01</ele>
        <time>2023-09-14T10:46:46Z</time>
      </trkpt>
      <trkpt lat="44.46794" lon="1.74419">
        <ele>201.53</ele>
        <time>2023-09-14T10:46:55Z</time>
      </trkpt>
      <trkpt lat="44.46792" lon="1.74421">
        <ele>200.57</ele>
        <time>2023-09-14T10:48:56Z</time>
      </trkpt>
      <trkpt lat="44.46786" lon="1.74418">
        <ele>200.09</ele>
        <time>2023-09-14T10:50:06Z</time>
      </trkpt>
      <trkpt lat="44.4679" lon="1.74413">
        <ele>199.61</ele>
        <time>2023-09-14T10:51:31Z</time>
      </trkpt>
      <trkpt lat="44.46782" lon="1.74409">
        <ele>198.65</ele>
        <time>2023-09-14T10:52:45Z</time>
      </trkpt>
      <trkpt lat="44.46774" lon="1.74399">
        <ele>196.73</ele>
        <time>2023-09-14T10:52:56Z</time>
      </trkpt>
      <trkpt lat="44.46766" lon="1.7439">
        <ele>195.28</ele>
        <time>2023-09-14T10:53:07Z</time>
      </trkpt>
      <trkpt lat="44.46757" lon="1.74381">
        <ele>193.36</ele>
        <time>2023-09-14T10:53:17Z</time>
      </trkpt>
      <trkpt lat="44.46749" lon="1.74376">
        <ele>191.92</ele>
        <time>2023-09-14T10:53:34Z</time>
      </trkpt>
      <trkpt lat="44.46737" lon="1.74373">
        <ele>190.96</ele>
        <time>2023-09-14T10:53:45Z</time>
      </trkpt>
      <trkpt lat="44.46728" lon="1.74364">
        <ele>188.56</ele>
        <time>2023-09-14T10:53:56Z</time>
      </trkpt>
      <trkpt lat="44.46721" lon="1.7436">
        <ele>187.59</ele>
        <time>2023-09-14T10:54:17Z</time>
      </trkpt>
      <trkpt lat="44.4672" lon="1.74354">
        <ele>187.59</ele>
        <time>2023-09-14T10:54:30Z</time>
      </trkpt>
      <trkpt lat="44.46716" lon="1.74341">
        <ele>186.63</ele>
        <time>2023-09-14T10:54:41Z</time>
      </trkpt>
      <trkpt lat="44.4671" lon="1.74327">
        <ele>184.71</ele>
        <time>2023-09-14T10:54:53Z</time>
      </trkpt>
      <trkpt lat="44.46705" lon="1.74314">
        <ele>183.27</ele>
        <time>2023-09-14T10:55:05Z</time>
      </trkpt>
      <trkpt lat="44.46701" lon="1.74299">
        <ele>182.31</ele>
        <time>2023-09-14T10:55:17Z</time>
      </trkpt>
      <trkpt lat="44.46691" lon="1.74274">
        <ele>179.42</ele>
        <time>2023-09-14T10:55:47Z</time>
      </trkpt>
      <trkpt lat="44.46677" lon="1.74243">
        <ele>178.46</ele>
        <time>2023-09-14T10:56:26Z</time>
      </trkpt>
      <trkpt lat="44.46678" lon="1.74228">
        <ele>177.5</ele>
        <time>2023-09-14T10:56:36Z</time>
      </trkpt>
      <trkpt lat="44.46679" lon="1.74213">
        <ele>176.54</ele>
        <time>2023-09-14T10:56:45Z</time>
      </trkpt>
      <trkpt lat="44.46678" lon="1.74196">
        <ele>176.06</ele>
        <time>2023-09-14T10:56:54Z</time>
      </trkpt>
      <trkpt lat="44.46671" lon="1.74179">
        <ele>174.14</ele>
        <time>2023-09-14T10:57:37Z</time>
      </trkpt>
      <trkpt lat="44.46662" lon="1.74171">
        <ele>173.17</ele>
        <time>2023-09-14T10:57:49Z</time>
      </trkpt>
      <trkpt lat="44.46655" lon="1.74162">
        <ele>173.17</ele>
        <time>2023-09-14T10:58:06Z</time>
      </trkpt>
      <trkpt lat="44.46647" lon="1.74153">
        <ele>172.21</ele>
        <time>2023-09-14T10:58:16Z</time>
      </trkpt>
      <trkpt lat="44.4664" lon="1.74145">
        <ele>171.73</ele>
        <time>2023-09-14T10:58:25Z</time>
      </trkpt>
      <trkpt lat="44.46632" lon="1.74137">
        <ele>171.25</ele>
        <time>2023-09-14T10:58:33Z</time>
      </trkpt>
      <trkpt lat="44.46621" lon="1.74128">
        <ele>170.29</ele>
        <time>2023-09-14T10:58:44Z</time>
      </trkpt>
      <trkpt lat="44.46612" lon="1.74117">
        <ele>169.81</ele>
        <time>2023-09-14T10:58:54Z</time>
      </trkpt>
      <trkpt lat="44.46601" lon="1.74103">
        <ele>168.85</ele>
        <time>2023-09-14T10:59:05Z</time>
      </trkpt>
      <trkpt lat="44.46591" lon="1.7409">
        <ele>168.37</ele>
        <time>2023-09-14T10:59:15Z</time>
      </trkpt>
      <trkpt lat="44.46584" lon="1.74077">
        <ele>167.89</ele>
        <time>2023-09-14T10:59:25Z</time>
      </trkpt>
      <trkpt lat="44.46579" lon="1.74061">
        <ele>166.93</ele>
        <time>2023-09-14T10:59:35Z</time>
      </trkpt>
      <trkpt lat="44.46578" lon="1.74046">
        <ele>166.45</ele>
        <time>2023-09-14T10:59:45Z</time>
      </trkpt>
      <trkpt lat="44.46573" lon="1.74032">
        <ele>165.48</ele>
        <time>2023-09-14T10:59:56Z</time>
      </trkpt>
      <trkpt lat="44.46568" lon="1.74019">
        <ele>165</ele>
        <time>2023-09-14T11:00:05Z</time>
      </trkpt>
      <trkpt lat="44.46559" lon="1.73995">
        <ele>164.04</ele>
        <time>2023-09-14T11:00:21Z</time>
      </trkpt>
      <trkpt lat="44.4655" lon="1.73979">
        <ele>163.08</ele>
        <time>2023-09-14T11:00:38Z</time>
      </trkpt>
      <trkpt lat="44.46543" lon="1.73967">
        <ele>162.12</ele>
        <time>2023-09-14T11:00:49Z</time>
      </trkpt>
      <trkpt lat="44.46532" lon="1.73954">
        <ele>161.64</ele>
        <time>2023-09-14T11:01:00Z</time>
      </trkpt>
      <trkpt lat="44.46523" lon="1.73945">
        <ele>160.68</ele>
        <time>2023-09-14T11:01:12Z</time>
      </trkpt>
      <trkpt lat="44.46515" lon="1.73934">
        <ele>160.2</ele>
        <time>2023-09-14T11:01:22Z</time>
      </trkpt>
      <trkpt lat="44.46504" lon="1.73924">
        <ele>159.24</ele>
        <time>2023-09-14T11:01:32Z</time>
      </trkpt>
      <trkpt lat="44.46495" lon="1.73915">
        <ele>158.75</ele>
        <time>2023-09-14T11:01:41Z</time>
      </trkpt>
      <trkpt lat="44.46489" lon="1.73904">
        <ele>158.27</ele>
        <time>2023-09-14T11:01:50Z</time>
      </trkpt>
      <trkpt lat="44.4648" lon="1.73897">
        <ele>157.31</ele>
        <time>2023-09-14T11:01:59Z</time>
      </trkpt>
      <trkpt lat="44.46471" lon="1.73888">
        <ele>156.83</ele>
        <time>2023-09-14T11:02:09Z</time>
      </trkpt>
      <trkpt lat="44.46462" lon="1.7388">
        <ele>155.87</ele>
        <time>2023-09-14T11:02:18Z</time>
      </trkpt>
      <trkpt lat="44.46454" lon="1.7387">
        <ele>155.39</ele>
        <time>2023-09-14T11:02:27Z</time>
      </trkpt>
      <trkpt lat="44.46447" lon="1.73857">
        <ele>153.95</ele>
        <time>2023-09-14T11:02:36Z</time>
      </trkpt>
      <trkpt lat="44.46442" lon="1.73844">
        <ele>153.47</ele>
        <time>2023-09-14T11:02:45Z</time>
      </trkpt>
      <trkpt lat="44.46439" lon="1.73827">
        <ele>152.99</ele>
        <time>2023-09-14T11:02:56Z</time>
      </trkpt>
      <trkpt lat="44.46439" lon="1.7381">
        <ele>152.03</ele>
        <time>2023-09-14T11:03:07Z</time>
      </trkpt>
      <trkpt lat="44.46442" lon="1.73792">
        <ele>151.54</ele>
        <time>2023-09-14T11:03:16Z</time>
      </trkpt>
      <trkpt lat="44.46446" lon="1.73778">
        <ele>151.54</ele>
        <time>2023-09-14T11:03:25Z</time>
      </trkpt>
      <trkpt lat="44.46453" lon="1.73763">
        <ele>151.06</ele>
        <time>2023-09-14T11:03:35Z</time>
      </trkpt>
      <trkpt lat="44.4646" lon="1.73749">
        <ele>150.58</ele>
        <time>2023-09-14T11:03:45Z</time>
      </trkpt>
      <trkpt lat="44.46466" lon="1.73735">
        <ele>150.1</ele>
        <time>2023-09-14T11:03:55Z</time>
      </trkpt>
      <trkpt lat="44.46472" lon="1.73723">
        <ele>150.1</ele>
        <time>2023-09-14T11:04:05Z</time>
      </trkpt>
      <trkpt lat="44.46479" lon="1.73713">
        <ele>150.1</ele>
        <time>2023-09-14T11:04:15Z</time>
      </trkpt>
      <trkpt lat="44.46485" lon="1.73697">
        <ele>150.1</ele>
        <time>2023-09-14T11:04:25Z</time>
      </trkpt>
      <trkpt lat="44.46491" lon="1.73685">
        <ele>150.1</ele>
        <time>2023-09-14T11:04:35Z</time>
      </trkpt>
      <trkpt lat="44.46497" lon="1.73673">
        <ele>150.1</ele>
        <time>2023-09-14T11:04:45Z</time>
      </trkpt>
      <trkpt lat="44.46503" lon="1.73659">
        <ele>150.1</ele>
        <time>2023-09-14T11:04:55Z</time>
      </trkpt>
      <trkpt lat="44.46509" lon="1.73644">
        <ele>150.1</ele>
        <time>2023-09-14T11:05:04Z</time>
      </trkpt>
      <trkpt lat="44.46515" lon="1.73631">
        <ele>150.1</ele>
        <time>2023-09-14T11:05:13Z</time>
      </trkpt>
      <trkpt lat="44.46522" lon="1.73616">
        <ele>149.62</ele>
        <time>2023-09-14T11:05:23Z</time>
      </trkpt>
      <trkpt lat="44.46521" lon="1.736">
        <ele>149.14</ele>
        <time>2023-09-14T11:05:44Z</time>
      </trkpt>
      <trkpt lat="44.46511" lon="1.73591">
        <ele>149.14</ele>
        <time>2023-09-14T11:05:56Z</time>
      </trkpt>
      <trkpt lat="44.4649" lon="1.73603">
        <ele>149.14</ele>
        <time>2023-09-14T11:06:27Z</time>
      </trkpt>
      <trkpt lat="44.46475" lon="1.7361">
        <ele>149.14</ele>
        <time>2023-09-14T11:06:45Z</time>
      </trkpt>
      <trkpt lat="44.46468" lon="1.73627">
        <ele>149.14</ele>
        <time>2023-09-14T11:06:57Z</time>
      </trkpt>
      <trkpt lat="44.46462" lon="1.73639">
        <ele>149.14</ele>
        <time>2023-09-14T11:07:05Z</time>
      </trkpt>
      <trkpt lat="44.46458" lon="1.73652">
        <ele>149.14</ele>
        <time>2023-09-14T11:07:19Z</time>
      </trkpt>
      <trkpt lat="44.46452" lon="1.73664">
        <ele>149.14</ele>
        <time>2023-09-14T11:07:27Z</time>
      </trkpt>
      <trkpt lat="44.46444" lon="1.73672">
        <ele>148.66</ele>
        <time>2023-09-14T11:07:37Z</time>
      </trkpt>
      <trkpt lat="44.46427" lon="1.73672">
        <ele>148.66</ele>
        <time>2023-09-14T11:07:51Z</time>
      </trkpt>
      <trkpt lat="44.46418" lon="1.73664">
        <ele>148.18</ele>
        <time>2023-09-14T11:08:00Z</time>
      </trkpt>
      <trkpt lat="44.46408" lon="1.73655">
        <ele>147.22</ele>
        <time>2023-09-14T11:08:09Z</time>
      </trkpt>
      <trkpt lat="44.46401" lon="1.73644">
        <ele>146.74</ele>
        <time>2023-09-14T11:08:17Z</time>
      </trkpt>
      <trkpt lat="44.46392" lon="1.73633">
        <ele>146.26</ele>
        <time>2023-09-14T11:08:25Z</time>
      </trkpt>
      <trkpt lat="44.46384" lon="1.73623">
        <ele>146.26</ele>
        <time>2023-09-14T11:08:33Z</time>
      </trkpt>
      <trkpt lat="44.46377" lon="1.73613">
        <ele>145.3</ele>
        <time>2023-09-14T11:08:41Z</time>
      </trkpt>
      <trkpt lat="44.46374" lon="1.736">
        <ele>144.82</ele>
        <time>2023-09-14T11:08:49Z</time>
      </trkpt>
      <trkpt lat="44.46378" lon="1.73587">
        <ele>144.82</ele>
        <time>2023-09-14T11:08:59Z</time>
      </trkpt>
      <trkpt lat="44.46385" lon="1.73573">
        <ele>144.82</ele>
        <time>2023-09-14T11:09:09Z</time>
      </trkpt>
      <trkpt lat="44.46394" lon="1.73562">
        <ele>144.82</ele>
        <time>2023-09-14T11:09:17Z</time>
      </trkpt>
      <trkpt lat="44.46404" lon="1.73551">
        <ele>144.82</ele>
        <time>2023-09-14T11:09:26Z</time>
      </trkpt>
      <trkpt lat="44.46411" lon="1.7354">
        <ele>144.34</ele>
        <time>2023-09-14T11:09:34Z</time>
      </trkpt>
      <trkpt lat="44.46418" lon="1.73531">
        <ele>144.34</ele>
        <time>2023-09-14T11:09:42Z</time>
      </trkpt>
      <trkpt lat="44.46425" lon="1.7352">
        <ele>144.34</ele>
        <time>2023-09-14T11:09:50Z</time>
      </trkpt>
      <trkpt lat="44.46432" lon="1.73509">
        <ele>144.34</ele>
        <time>2023-09-14T11:09:58Z</time>
      </trkpt>
      <trkpt lat="44.46439" lon="1.73498">
        <ele>144.34</ele>
        <time>2023-09-14T11:10:06Z</time>
      </trkpt>
      <trkpt lat="44.46447" lon="1.73488">
        <ele>144.34</ele>
        <time>2023-09-14T11:10:14Z</time>
      </trkpt>
      <trkpt lat="44.46454" lon="1.73478">
        <ele>144.34</ele>
        <time>2023-09-14T11:10:22Z</time>
      </trkpt>
      <trkpt lat="44.46461" lon="1.73466">
        <ele>144.34</ele>
        <time>2023-09-14T11:10:30Z</time>
      </trkpt>
      <trkpt lat="44.46468" lon="1.73456">
        <ele>144.34</ele>
        <time>2023-09-14T11:10:38Z</time>
      </trkpt>
      <trkpt lat="44.46475" lon="1.73446">
        <ele>144.34</ele>
        <time>2023-09-14T11:10:47Z</time>
      </trkpt>
      <trkpt lat="44.46478" lon="1.73433">
        <ele>144.34</ele>
        <time>2023-09-14T11:10:57Z</time>
      </trkpt>
      <trkpt lat="44.4647" lon="1.73422">
        <ele>143.85</ele>
        <time>2023-09-14T11:11:52Z</time>
      </trkpt>
      <trkpt lat="44.46462" lon="1.73412">
        <ele>143.85</ele>
        <time>2023-09-14T11:12:06Z</time>
      </trkpt>
    </trkseg>
  </trk>
</gpx>